Observation data for Big Lake on 11/11/2019      Previous  Date       Current Mesonet Observations  Soil Data  Daily Summary Page  Observations in Plain Language
KBI1 110600Z 18012KT 15/13 A2997 RMK A01 T01500133  RH  089%=      5-min Rain = 0
KBI1 110601Z 19012KT 15/13 A2997 RMK A01 T01500133  RH  089%=      5-min Rain = 0
KBI1 110602Z 19014KT 15/13 A2997 RMK A01 T01500133  RH  089%=      5-min Rain = 0
KBI1 110603Z 19012KT 15/13 A2997 RMK A01 T01500133  RH  089%=      5-min Rain = 0
KBI1 110604Z 19013KT 15/13 A2997 RMK A01 T01500133  RH  089%=      5-min Rain = 0
KBI1 110605Z 18010KT 15/13 A2997 RMK A01 T01500133  RH  089%=      5-min Rain = 0
KBI1 110606Z 19012KT 15/13 A2997 RMK A01 T01500133  RH  089%=      5-min Rain = 0
KBI1 110607Z 19009KT 15/13 A2997 RMK A01 T01500133  RH  089%=      5-min Rain = 0
KBI1 110608Z 19011KT 15/13 A2998 RMK A01 T01500133  RH  090%=      5-min Rain = 0
KBI1 110609Z 19011KT 15/13 A2998 RMK A01 T01500133  RH  090%=      5-min Rain = 0
KBI1 110610Z 19012KT 15/13 A2998 RMK A01 T01500134  RH  090%=      5-min Rain = 0
KBI1 110611Z 18011KT 15/13 A2998 RMK A01 T01500134  RH  090%=      5-min Rain = 0
KBI1 110612Z 19011KT 15/13 A2998 RMK A01 T01500133  RH  090%=      5-min Rain = 0
KBI1 110613Z 19011KT 15/13 A2998 RMK A01 T01500133  RH  090%=      5-min Rain = 0
KBI1 110614Z 19011KT 15/13 A2997 RMK A01 T01500134  RH  090%=      5-min Rain = 0
KBI1 110615Z 18012KT 15/13 A2997 RMK A01 T01500133  RH  090%=      5-min Rain = 0
KBI1 110616Z 18011G16KT 15/13 A2997 RMK A01 T01500133  RH  090%=      5-min Rain = 0
KBI1 110617Z 19012KT 15/13 A2997 RMK A01 T01500134  RH  090%=      5-min Rain = 0
KBI1 110618Z 19011KT 15/13 A2997 RMK A01 T01500134  RH  090%=      5-min Rain = 0
KBI1 110619Z 19014KT 15/13 A2997 RMK A01 T01500133  RH  090%=      5-min Rain = 0
KBI1 110620Z 19015KT 15/13 A2997 RMK A01 T01500134  RH  090%=      5-min Rain = 0
KBI1 110621Z 19013KT 15/13 A2997 RMK A01 T01500134  RH  090%=      5-min Rain = 0
KBI1 110622Z 19013G18KT 15/13 A2997 RMK A01 T01500133  RH  090%=      5-min Rain = 0
KBI1 110623Z 19015KT 15/13 A2997 RMK A01 T01500134  RH  090%=      5-min Rain = 0
KBI1 110624Z 19014KT 15/13 A2997 RMK A01 T01500134  RH  090%=      5-min Rain = 0
KBI1 110625Z 19015KT 15/13 A2997 RMK A01 T01500134  RH  090%=      5-min Rain = 0
KBI1 110626Z 19012KT 15/13 A2997 RMK A01 T01500134  RH  090%=      5-min Rain = 0
KBI1 110627Z 19015G21KT 15/13 A2997 RMK A01 T01500134  RH  090%=      5-min Rain = 0
KBI1 110628Z 19016KT 15/13 A2997 RMK A01 T01500134  RH  090%=      5-min Rain = 0
KBI1 110629Z 19018KT 15/13 A2997 RMK A01 T01500134  RH  090%=      5-min Rain = 0
KBI1 110630Z 19016KT 15/13 A2997 RMK A01 T01500134  RH  090%=      5-min Rain = 0
KBI1 110631Z 19017KT 15/13 A2997 RMK A01 T01500134  RH  090%=      5-min Rain = 0
KBI1 110632Z 20016KT 15/13 A2997 RMK A01 T01500134  RH  090%=      5-min Rain = 0
KBI1 110633Z 19014KT 15/13 A2997 RMK A01 T01500134  RH  090%=      5-min Rain = 0
KBI1 110634Z 19012KT 15/13 A2997 RMK A01 T01500134  RH  090%=      5-min Rain = 0
KBI1 110635Z 19014KT 15/13 A2997 RMK A01 T01500134  RH  090%=      5-min Rain = 0
KBI1 110636Z 19013KT 15/13 A2997 RMK A01 T01500134  RH  090%=      5-min Rain = 0
KBI1 110637Z 18013KT 15/13 A2997 RMK A01 T01500134  RH  090%=      5-min Rain = 0
KBI1 110638Z 18011KT 15/13 A2997 RMK A01 T01500134  RH  090%=      5-min Rain = 0
KBI1 110639Z 19010KT 15/13 A2996 RMK A01 T01490134  RH  090%=      5-min Rain = 0
KBI1 110640Z 18011KT 15/13 A2996 RMK A01 T01500134  RH  090%=      5-min Rain = 0
KBI1 110641Z 19011KT 15/13 A2996 RMK A01 T01500134  RH  091%=      5-min Rain = 0
KBI1 110642Z 19010KT 15/13 A2996 RMK A01 T01500134  RH  091%=      5-min Rain = 0
KBI1 110643Z 18013KT 15/14 A2996 RMK A01 T01500135  RH  091%=      5-min Rain = 0
KBI1 110644Z 19010KT 15/14 A2996 RMK A01 T01500135  RH  091%=      5-min Rain = 0
KBI1 110645Z 19009KT 15/13 A2996 RMK A01 T01490134  RH  091%=      5-min Rain = 0
KBI1 110646Z 19009KT 15/13 A2996 RMK A01 T01490134  RH  091%=      5-min Rain = 0
KBI1 110647Z 20011G17KT 15/13 A2996 RMK A01 T01490134  RH  091%=      5-min Rain = 0
KBI1 110648Z 19012KT 15/13 A2996 RMK A01 T01490134  RH  091%=      5-min Rain = 0
KBI1 110649Z 19012KT 15/13 A2996 RMK A01 T01490134  RH  091%=      5-min Rain = 0
KBI1 110650Z 18013KT 15/13 A2996 RMK A01 T01490134  RH  091%=      5-min Rain = 0
KBI1 110651Z 19011KT 15/13 A2996 RMK A01 T01490134  RH  091%=      5-min Rain = 0
KBI1 110652Z 19013KT 15/13 A2996 RMK A01 T01490134  RH  091%=      5-min Rain = 0
KBI1 110653Z 19013KT 15/14 A2996 RMK A01 T01490135  RH  091%=      5-min Rain = 0
KBI1 110654Z 19013KT 15/13 A2996 RMK A01 T01490134  RH  091%=      5-min Rain = 0
KBI1 110655Z 19013KT 15/13 A2996 RMK A01 T01490134  RH  091%=      5-min Rain = 0
KBI1 110656Z 19013KT 15/13 A2996 RMK A01 T01490134  RH  091%=      5-min Rain = 0
KBI1 110657Z 19013KT 15/14 A2996 RMK A01 T01490135  RH  091%=      5-min Rain = 0
KBI1 110658Z 19012KT 15/14 A2996 RMK A01 T01490135  RH  091%=      5-min Rain = 0
KBI1 110659Z 18013KT 15/14 A2996 RMK A01 T01490135  RH  091%=      5-min Rain = 0
KBI1 110700Z 19010KT 15/14 A2996 RMK A01 T01490135  RH  091%=      5-min Rain = 0
KBI1 110701Z 19011KT 15/13 A2996 RMK A01 T01480134  RH  091%=      5-min Rain = 0
KBI1 110702Z 19012KT 15/13 A2996 RMK A01 T01480134  RH  091%=      5-min Rain = 0
KBI1 110703Z 19013KT 15/14 A2995 RMK A01 T01480135  RH  091%=      5-min Rain = 0
KBI1 110704Z 18012KT 15/14 A2995 RMK A01 T01480135  RH  091%=      5-min Rain = 0
KBI1 110705Z 19012KT 15/14 A2995 RMK A01 T01490135  RH  092%=      5-min Rain = 0
KBI1 110706Z 20012KT 15/14 A2995 RMK A01 T01480135  RH  092%=      5-min Rain = 0
KBI1 110707Z 19010KT 15/14 A2995 RMK A01 T01480135  RH  092%=      5-min Rain = 0
KBI1 110708Z 20011KT 15/14 A2995 RMK A01 T01480135  RH  092%=      5-min Rain = 0
KBI1 110709Z 19011KT 15/14 A2995 RMK A01 T01480135  RH  092%=      5-min Rain = 0
KBI1 110710Z 19011KT 15/14 A2995 RMK A01 T01480135  RH  092%=      5-min Rain = 0
KBI1 110711Z 19011KT 15/14 A2995 RMK A01 T01480135  RH  092%=      5-min Rain = 0
KBI1 110712Z 19011KT 15/14 A2995 RMK A01 T01480135  RH  092%=      5-min Rain = 0
KBI1 110713Z 19013KT 15/14 A2995 RMK A01 T01480135  RH  092%=      5-min Rain = 0
KBI1 110714Z 19012KT 15/14 A2995 RMK A01 T01480135  RH  092%=      5-min Rain = 0
KBI1 110715Z 19012KT 15/14 A2995 RMK A01 T01480135  RH  092%=      5-min Rain = 0
KBI1 110716Z 19014KT 15/14 A2995 RMK A01 T01480135  RH  092%=      5-min Rain = 0
KBI1 110717Z 19013KT 15/14 A2995 RMK A01 T01480135  RH  092%=      5-min Rain = 0
KBI1 110718Z 18014KT 15/14 A2995 RMK A01 T01480135  RH  092%=      5-min Rain = 0
KBI1 110719Z 19014KT 15/14 A2995 RMK A01 T01480135  RH  092%=      5-min Rain = 0
KBI1 110720Z 19013KT 15/14 A2995 RMK A01 T01480135  RH  092%=      5-min Rain = 0
KBI1 110721Z 19014KT 15/14 A2995 RMK A01 T01480135  RH  092%=      5-min Rain = 0
KBI1 110722Z 19016KT 15/14 A2995 RMK A01 T01480135  RH  092%=      5-min Rain = 0
KBI1 110723Z 18017KT 15/14 A2995 RMK A01 T01480135  RH  092%=      5-min Rain = 0
KBI1 110724Z 19015KT 15/14 A2995 RMK A01 T01480135  RH  092%=      5-min Rain = 0
KBI1 110725Z 19015KT 15/14 A2995 RMK A01 T01480135  RH  092%=      5-min Rain = 0
KBI1 110726Z 18016KT 15/14 A2995 RMK A01 T01480135  RH  092%=      5-min Rain = 0
KBI1 110727Z 19014KT 15/14 A2995 RMK A01 T01480135  RH  092%=      5-min Rain = 0
KBI1 110728Z 19014KT 15/14 A2995 RMK A01 T01480135  RH  092%=      5-min Rain = 0
KBI1 110729Z 18015KT 15/14 A2994 RMK A01 T01480135  RH  092%=      5-min Rain = 0
KBI1 110730Z 19014KT 15/14 A2995 RMK A01 T01480135  RH  092%=      5-min Rain = 0
KBI1 110731Z 19016KT 15/14 A2995 RMK A01 T01480136  RH  092%=      5-min Rain = 0
KBI1 110732Z 19016KT 15/14 A2994 RMK A01 T01480135  RH  092%=      5-min Rain = 0
KBI1 110733Z 19014KT 15/14 A2995 RMK A01 T01480135  RH  092%=      5-min Rain = 0
KBI1 110734Z 19013KT 15/14 A2995 RMK A01 T01480135  RH  092%=      5-min Rain = 0
KBI1 110735Z 19014KT 15/14 A2994 RMK A01 T01480135  RH  092%=      5-min Rain = 0
KBI1 110736Z 18013KT 15/14 A2994 RMK A01 T01480136  RH  092%=      5-min Rain = 0
KBI1 110737Z 19016KT 15/14 A2994 RMK A01 T01480136  RH  092%=      5-min Rain = 0
KBI1 110738Z 19016KT 15/14 A2994 RMK A01 T01480136  RH  093%=      5-min Rain = 0
KBI1 110739Z 18014KT 15/14 A2994 RMK A01 T01480136  RH  093%=      5-min Rain = 0
KBI1 110740Z 19015KT 15/14 A2994 RMK A01 T01480136  RH  093%=      5-min Rain = 0
KBI1 110741Z 19013KT 15/14 A2994 RMK A01 T01480136  RH  093%=      5-min Rain = 0
KBI1 110742Z 19014KT 15/14 A2994 RMK A01 T01480136  RH  093%=      5-min Rain = 0
KBI1 110743Z 19014KT 15/14 A2994 RMK A01 T01480136  RH  093%=      5-min Rain = 0
KBI1 110744Z 18016KT 15/14 A2995 RMK A01 T01480136  RH  093%=      5-min Rain = 0
KBI1 110745Z 18015KT 15/14 A2994 RMK A01 T01480136  RH  093%=      5-min Rain = 0
KBI1 110746Z 18018KT 15/14 A2995 RMK A01 T01480136  RH  093%=      5-min Rain = 0
KBI1 110747Z 18015KT 15/14 A2995 RMK A01 T01480136  RH  093%=      5-min Rain = 0
KBI1 110748Z 19017KT 15/14 A2994 RMK A01 T01480136  RH  093%=      5-min Rain = 0
KBI1 110749Z 18015KT 15/14 A2994 RMK A01 T01480136  RH  093%=      5-min Rain = 0
KBI1 110750Z 18016KT 15/14 A2994 RMK A01 T01480136  RH  093%=      5-min Rain = 0
KBI1 110751Z 18016KT 15/14 A2994 RMK A01 T01470136  RH  093%=      5-min Rain = 0
KBI1 110752Z 19016KT 15/14 A2994 RMK A01 T01470136  RH  093%=      5-min Rain = 0
KBI1 110753Z 18017KT 15/14 A2994 RMK A01 T01480136  RH  093%=      5-min Rain = 0
KBI1 110754Z 18016KT 15/14 A2994 RMK A01 T01470136  RH  093%=      5-min Rain = 0
KBI1 110755Z 18014KT 15/14 A2994 RMK A01 T01470136  RH  093%=      5-min Rain = 0
KBI1 110756Z 19015KT 15/14 A2994 RMK A01 T01470137  RH  093%=      5-min Rain = 0
KBI1 110757Z 18015G21KT 15/14 A2994 RMK A01 T01470136  RH  093%=      5-min Rain = 0
KBI1 110758Z 19015KT 15/14 A2994 RMK A01 T01470136  RH  093%=      5-min Rain = 0
KBI1 110759Z 19017KT 15/14 A2994 RMK A01 T01470136  RH  093%=      5-min Rain = 0
KBI1 110800Z 19013KT 15/14 A2994 RMK A01 T01470136  RH  093%=      5-min Rain = 0
KBI1 110801Z 18013KT 15/14 A2995 RMK A01 T01470136  RH  093%=      5-min Rain = 0
KBI1 110802Z 19013KT 15/14 A2995 RMK A01 T01470137  RH  093%=      5-min Rain = 0
KBI1 110803Z 19015KT 15/14 A2995 RMK A01 T01470137  RH  093%=      5-min Rain = 0
KBI1 110804Z 19017KT 15/14 A2995 RMK A01 T01470137  RH  093%=      5-min Rain = 0
KBI1 110805Z 18016KT 15/14 A2995 RMK A01 T01470137  RH  093%=      5-min Rain = 0
KBI1 110806Z 19015KT 15/14 A2995 RMK A01 T01470137  RH  093%=      5-min Rain = 0
KBI1 110807Z 19015KT 15/14 A2995 RMK A01 T01480137  RH  093%=      5-min Rain = 0
KBI1 110808Z 19015G20KT 15/14 A2995 RMK A01 T01470137  RH  093%=      5-min Rain = 0
KBI1 110809Z 19015KT 15/14 A2995 RMK A01 T01470137  RH  093%=      5-min Rain = 0
KBI1 110810Z 18012KT 15/14 A2995 RMK A01 T01470137  RH  093%=      5-min Rain = 0
KBI1 110811Z 18014KT 15/14 A2995 RMK A01 T01470137  RH  094%=      5-min Rain = 0
KBI1 110812Z 18015KT 15/14 A2994 RMK A01 T01470137  RH  094%=      5-min Rain = 0
KBI1 110813Z 18015KT 15/14 A2994 RMK A01 T01470137  RH  094%=      5-min Rain = 0
KBI1 110814Z 18014G20KT 15/14 A2995 RMK A01 T01470137  RH  094%=      5-min Rain = 0
KBI1 110815Z 18013KT 15/14 A2995 RMK A01 T01470137  RH  094%=      5-min Rain = 0
KBI1 110816Z 18017KT 15/14 A2995 RMK A01 T01470137  RH  094%=      5-min Rain = 0
KBI1 110817Z 18017KT 15/14 A2995 RMK A01 T01470137  RH  094%=      5-min Rain = 0
KBI1 110818Z 18015KT 15/14 A2995 RMK A01 T01470137  RH  094%=      5-min Rain = 0
KBI1 110819Z 18017KT 15/14 A2995 RMK A01 T01470137  RH  094%=      5-min Rain = 0
KBI1 110820Z 18015KT 15/14 A2995 RMK A01 T01470137  RH  094%=      5-min Rain = 0
KBI1 110821Z 19013G18KT 15/14 A2995 RMK A01 T01470137  RH  094%=      5-min Rain = 0
KBI1 110822Z 19013KT 15/14 A2995 RMK A01 T01470137  RH  094%=      5-min Rain = 0
KBI1 110823Z 18015KT 15/14 A2995 RMK A01 T01470137  RH  094%=      5-min Rain = 0
KBI1 110824Z 19015KT 15/14 A2995 RMK A01 T01470137  RH  094%=      5-min Rain = 0
KBI1 110825Z 18013KT 15/14 A2995 RMK A01 T01470137  RH  094%=      5-min Rain = 0
KBI1 110826Z 19012KT 15/14 A2995 RMK A01 T01470137  RH  094%=      5-min Rain = 0
KBI1 110827Z 18014KT 15/14 A2995 RMK A01 T01470137  RH  094%=      5-min Rain = 0
KBI1 110828Z 18011KT 15/14 A2995 RMK A01 T01470137  RH  094%=      5-min Rain = 0
KBI1 110829Z 18012KT 15/14 A2995 RMK A01 T01470137  RH  094%=      5-min Rain = 0
KBI1 110830Z 18012KT 15/14 A2995 RMK A01 T01470138  RH  094%=      5-min Rain = 0
KBI1 110831Z 19012KT 15/14 A2995 RMK A01 T01470137  RH  094%=      5-min Rain = 0
KBI1 110832Z 18013KT 15/14 A2995 RMK A01 T01470137  RH  094%=      5-min Rain = 0
KBI1 110833Z 18014KT 15/14 A2995 RMK A01 T01470137  RH  094%=      5-min Rain = 0
KBI1 110834Z 19011KT 15/14 A2995 RMK A01 T01470137  RH  094%=      5-min Rain = 0
KBI1 110835Z 19012KT 15/14 A2995 RMK A01 T01470137  RH  094%=      5-min Rain = 0
KBI1 110836Z 18012KT 15/14 A2995 RMK A01 T01470137  RH  094%=      5-min Rain = 0
KBI1 110837Z 19011KT 15/14 A2995 RMK A01 T01470138  RH  094%=      5-min Rain = 0
KBI1 110838Z 20012KT 15/14 A2995 RMK A01 T01470137  RH  094%=      5-min Rain = 0
KBI1 110839Z 19014KT 15/14 A2995 RMK A01 T01470137  RH  094%=      5-min Rain = 0
KBI1 110840Z 19014KT 15/14 A2995 RMK A01 T01470138  RH  094%=      5-min Rain = 0
KBI1 110841Z 19017KT 15/14 A2995 RMK A01 T01470137  RH  094%=      5-min Rain = 0
KBI1 110842Z 19015KT 15/14 A2995 RMK A01 T01470137  RH  094%=      5-min Rain = 0
KBI1 110843Z 19016KT 15/14 A2995 RMK A01 T01460137  RH  094%=      5-min Rain = 0
KBI1 110844Z 19016KT 15/14 A2995 RMK A01 T01470138  RH  094%=      5-min Rain = 0
KBI1 110845Z 19014KT 15/14 A2995 RMK A01 T01460137  RH  094%=      5-min Rain = 0
KBI1 110846Z 19015KT 15/14 A2995 RMK A01 T01460137  RH  094%=      5-min Rain = 0
KBI1 110847Z 18013KT 15/14 A2995 RMK A01 T01470138  RH  094%=      5-min Rain = 0
KBI1 110848Z 19013KT 15/14 A2995 RMK A01 T01460137  RH  094%=      5-min Rain = 0
KBI1 110849Z 18013KT 15/14 A2995 RMK A01 T01460138  RH  094%=      5-min Rain = 0
KBI1 110850Z 18013KT 15/14 A2995 RMK A01 T01470138  RH  094%=      5-min Rain = 0
KBI1 110851Z 18014G19KT 15/14 A2995 RMK A01 T01460138  RH  094%=      5-min Rain = 0
KBI1 110852Z 19013KT 15/14 A2995 RMK A01 T01470138  RH  094%=      5-min Rain = 0
KBI1 110853Z 20016G21KT 15/14 A2995 RMK A01 T01460138  RH  094%=      5-min Rain = 0
KBI1 110854Z 19014KT 15/14 A2995 RMK A01 T01460138  RH  094%=      5-min Rain = 0
KBI1 110855Z 19014KT 15/14 A2995 RMK A01 T01460138  RH  094%=      5-min Rain = 0
KBI1 110856Z 19013KT 15/14 A2995 RMK A01 T01470138  RH  095%=      5-min Rain = 0
KBI1 110857Z 19013KT 15/14 A2995 RMK A01 T01460138  RH  095%=      5-min Rain = 0
KBI1 110858Z 19013KT 15/14 A2995 RMK A01 T01460138  RH  095%=      5-min Rain = 0
KBI1 110859Z 19016G21KT 15/14 A2995 RMK A01 T01460138  RH  095%=      5-min Rain = 0
KBI1 110900Z 18014KT 15/14 A2995 RMK A01 T01460138  RH  095%=      5-min Rain = 0
KBI1 110901Z 19013KT 15/14 A2995 RMK A01 T01460138  RH  095%=      5-min Rain = 0
KBI1 110902Z 19016KT 15/14 A2994 RMK A01 T01470138  RH  095%=      5-min Rain = 0
KBI1 110903Z 19016KT 15/14 A2995 RMK A01 T01460138  RH  095%=      5-min Rain = 0
KBI1 110904Z 19017KT 15/14 A2995 RMK A01 T01460138  RH  095%=      5-min Rain = 0
KBI1 110905Z 19014KT 15/14 A2994 RMK A01 T01460138  RH  095%=      5-min Rain = 0
KBI1 110906Z 18016KT 15/14 A2995 RMK A01 T01460138  RH  095%=      5-min Rain = 0
KBI1 110907Z 18015KT 15/14 A2994 RMK A01 T01460138  RH  095%=      5-min Rain = 0
KBI1 110908Z 19014KT 15/14 A2995 RMK A01 T01460138  RH  095%=      5-min Rain = 0
KBI1 110909Z 19014KT 15/14 A2995 RMK A01 T01460138  RH  095%=      5-min Rain = 0
KBI1 110910Z 18012KT 15/14 A2995 RMK A01 T01460138  RH  095%=      5-min Rain = 0
KBI1 110911Z 19011KT 15/14 A2995 RMK A01 T01460138  RH  095%=      5-min Rain = 0
KBI1 110912Z 19011KT 15/14 A2995 RMK A01 T01460138  RH  095%=      5-min Rain = 0
KBI1 110913Z 19013KT 15/14 A2994 RMK A01 T01460138  RH  095%=      5-min Rain = 0
KBI1 110914Z 18012KT 15/14 A2994 RMK A01 T01460138  RH  095%=      5-min Rain = 0
KBI1 110915Z 19012G17KT 15/14 A2995 RMK A01 T01460138  RH  095%=      5-min Rain = 0
KBI1 110916Z 19014KT 15/14 A2995 RMK A01 T01460138  RH  095%=      5-min Rain = 0
KBI1 110917Z 19014KT 15/14 A2995 RMK A01 T01460138  RH  095%=      5-min Rain = 0
KBI1 110918Z 19012KT 15/14 A2995 RMK A01 T01460138  RH  095%=      5-min Rain = 0
KBI1 110919Z 18013KT 15/14 A2995 RMK A01 T01460138  RH  095%=      5-min Rain = 0
KBI1 110920Z 19012KT 15/14 A2995 RMK A01 T01460138  RH  095%=      5-min Rain = 0
KBI1 110921Z 18013KT 15/14 A2995 RMK A01 T01460138  RH  095%=      5-min Rain = 0
KBI1 110922Z 18011KT 15/14 A2995 RMK A01 T01460138  RH  095%=      5-min Rain = 0
KBI1 110923Z 18013KT 15/14 A2995 RMK A01 T01470139  RH  095%=      5-min Rain = 0
KBI1 110924Z 18012KT 15/14 A2995 RMK A01 T01470139  RH  095%=      5-min Rain = 0
KBI1 110925Z 18011KT 15/14 A2995 RMK A01 T01470139  RH  095%=      5-min Rain = 0
KBI1 110926Z 18012KT 15/14 A2995 RMK A01 T01470139  RH  095%=      5-min Rain = 0
KBI1 110927Z 18011KT 15/14 A2995 RMK A01 T01460138  RH  095%=      5-min Rain = 0
KBI1 110928Z 18011KT 15/14 A2995 RMK A01 T01460138  RH  095%=      5-min Rain = 0
KBI1 110929Z 18012KT 15/14 A2995 RMK A01 T01470139  RH  095%=      5-min Rain = 0
KBI1 110930Z 18011KT 15/14 A2995 RMK A01 T01470139  RH  095%=      5-min Rain = 0
KBI1 110931Z 18010KT 15/14 A2995 RMK A01 T01470139  RH  095%=      5-min Rain = 0
KBI1 110932Z 18011KT 15/14 A2995 RMK A01 T01460138  RH  095%=      5-min Rain = 0
KBI1 110933Z 17011KT 15/14 A2995 RMK A01 T01470139  RH  095%=      5-min Rain = 0
KBI1 110934Z 18012KT 15/14 A2995 RMK A01 T01470138  RH  095%=      5-min Rain = 0
KBI1 110935Z 18009KT 15/14 A2995 RMK A01 T01470139  RH  095%=      5-min Rain = 0
KBI1 110936Z 19012KT 15/14 A2995 RMK A01 T01460138  RH  095%=      5-min Rain = 0
KBI1 110937Z 18010KT 15/14 A2995 RMK A01 T01460138  RH  095%=      5-min Rain = 0
KBI1 110938Z 19010KT 15/14 A2995 RMK A01 T01470139  RH  095%=      5-min Rain = 0
KBI1 110939Z 18011KT 15/14 A2995 RMK A01 T01460138  RH  095%=      5-min Rain = 0
KBI1 110940Z 18010KT 15/14 A2995 RMK A01 T01460138  RH  095%=      5-min Rain = 0
KBI1 110941Z 18009KT 15/14 A2995 RMK A01 T01470139  RH  095%=      5-min Rain = 0
KBI1 110942Z 18012KT 15/14 A2995 RMK A01 T01470139  RH  095%=      5-min Rain = 0
KBI1 110943Z 19014KT 15/14 A2995 RMK A01 T01470139  RH  095%=      5-min Rain = 0
KBI1 110944Z 18013KT 15/14 A2995 RMK A01 T01470139  RH  095%=      5-min Rain = 0
KBI1 110945Z 18012KT 15/14 A2995 RMK A01 T01470139  RH  095%=      5-min Rain = 0
KBI1 110946Z 18012KT 15/14 A2995 RMK A01 T01470138  RH  095%=      5-min Rain = 0
KBI1 110947Z 18011KT 15/14 A2995 RMK A01 T01470139  RH  095%=      5-min Rain = 0
KBI1 110948Z 19011KT 15/14 A2995 RMK A01 T01470139  RH  095%=      5-min Rain = 0
KBI1 110949Z 19012G18KT 15/14 A2995 RMK A01 T01470139  RH  095%=      5-min Rain = 0
KBI1 110950Z 18014KT 15/14 A2995 RMK A01 T01470138  RH  095%=      5-min Rain = 0
KBI1 110951Z 19012KT 15/14 A2995 RMK A01 T01470139  RH  095%=      5-min Rain = 0
KBI1 110952Z 19012KT 15/14 A2995 RMK A01 T01470139  RH  095%=      5-min Rain = 0
KBI1 110953Z 19011KT 15/14 A2995 RMK A01 T01470139  RH  095%=      5-min Rain = 0
KBI1 110954Z 19011KT 15/14 A2995 RMK A01 T01470138  RH  095%=      5-min Rain = 0
KBI1 110955Z 18010KT 15/14 A2995 RMK A01 T01470139  RH  095%=      5-min Rain = 0
KBI1 110956Z 19011KT 15/14 A2995 RMK A01 T01470139  RH  095%=      5-min Rain = 0
KBI1 110957Z 18013KT 15/14 A2995 RMK A01 T01470139  RH  095%=      5-min Rain = 0
KBI1 110958Z 19013KT 15/14 A2995 RMK A01 T01470139  RH  095%=      5-min Rain = 0
KBI1 110959Z 18013KT 15/14 A2995 RMK A01 T01470139  RH  095%=      5-min Rain = 0
KBI1 111000Z 18011KT 15/14 A2995 RMK A01 T01470139  RH  095%=      5-min Rain = 0
KBI1 111001Z 18013KT 15/14 A2995 RMK A01 T01470139  RH  095%=      5-min Rain = 0
KBI1 111002Z 18014KT 15/14 A2995 RMK A01 T01470139  RH  095%=      5-min Rain = 0
KBI1 111003Z 18013KT 15/14 A2995 RMK A01 T01470139  RH  095%=      5-min Rain = 0
KBI1 111004Z 19012KT 15/14 A2995 RMK A01 T01470139  RH  095%=      5-min Rain = 0
KBI1 111005Z 18010KT 15/14 A2995 RMK A01 T01470139  RH  095%=      5-min Rain = 0
KBI1 111006Z 19014KT 15/14 A2995 RMK A01 T01470139  RH  095%=      5-min Rain = 0
KBI1 111007Z 19013KT 15/14 A2995 RMK A01 T01470139  RH  095%=      5-min Rain = 0
KBI1 111008Z 19013KT 15/14 A2995 RMK A01 T01470139  RH  095%=      5-min Rain = 0
KBI1 111009Z 18011KT 15/14 A2995 RMK A01 T01460139  RH  095%=      5-min Rain = 0
KBI1 111010Z 19011KT 15/14 A2995 RMK A01 T01460139  RH  095%=      5-min Rain = 0
KBI1 111011Z 18012KT 15/14 A2995 RMK A01 T01460139  RH  095%=      5-min Rain = 0
KBI1 111012Z 19013KT 15/14 A2995 RMK A01 T01470139  RH  095%=      5-min Rain = 0
KBI1 111013Z 18010KT 15/14 A2995 RMK A01 T01460139  RH  095%=      5-min Rain = 0
KBI1 111014Z 18011KT 15/14 A2995 RMK A01 T01460139  RH  095%=      5-min Rain = 0
KBI1 111015Z 19010KT 15/14 A2995 RMK A01 T01460139  RH  095%=      5-min Rain = 0
KBI1 111016Z 19009KT 15/14 A2995 RMK A01 T01460139  RH  095%=      5-min Rain = 0
KBI1 111017Z 19008KT 15/14 A2995 RMK A01 T01470139  RH  095%=      5-min Rain = 0
KBI1 111018Z 18009KT 15/14 A2995 RMK A01 T01460139  RH  095%=      5-min Rain = 0
KBI1 111019Z 18008KT 15/14 A2995 RMK A01 T01470139  RH  095%=      5-min Rain = 0
KBI1 111020Z 19008KT 15/14 A2995 RMK A01 T01460139  RH  095%=      5-min Rain = 0
KBI1 111021Z 18010KT 15/14 A2995 RMK A01 T01460139  RH  095%=      5-min Rain = 0
KBI1 111022Z 18009KT 15/14 A2995 RMK A01 T01460139  RH  095%=      5-min Rain = 0
KBI1 111023Z 18008KT 15/14 A2995 RMK A01 T01470139  RH  095%=      5-min Rain = 0
KBI1 111024Z 18008KT 15/14 A2995 RMK A01 T01460139  RH  095%=      5-min Rain = 0
KBI1 111025Z 18010KT 15/14 A2995 RMK A01 T01460139  RH  095%=      5-min Rain = 0
KBI1 111026Z 18009KT 15/14 A2995 RMK A01 T01460139  RH  095%=      5-min Rain = 0
KBI1 111027Z 18011G16KT 15/14 A2995 RMK A01 T01460139  RH  095%=      5-min Rain = 0
KBI1 111028Z 18012KT 15/14 A2995 RMK A01 T01460139  RH  095%=      5-min Rain = 0
KBI1 111029Z 18012G18KT 15/14 A2995 RMK A01 T01460139  RH  095%=      5-min Rain = 0
KBI1 111030Z 18013KT 15/14 A2995 RMK A01 T01460139  RH  095%=      5-min Rain = 0
KBI1 111031Z 18012KT 15/14 A2995 RMK A01 T01460139  RH  095%=      5-min Rain = 0
KBI1 111032Z 18012KT 15/14 A2995 RMK A01 T01460139  RH  095%=      5-min Rain = 0
KBI1 111033Z 18010KT 15/14 A2995 RMK A01 T01460139  RH  095%=      5-min Rain = 0
KBI1 111034Z 18009KT 15/14 A2995 RMK A01 T01460139  RH  095%=      5-min Rain = 0
KBI1 111035Z 18008KT 15/14 A2995 RMK A01 T01460139  RH  095%=      5-min Rain = 0
KBI1 111036Z 18008KT 15/14 A2995 RMK A01 T01460139  RH  095%=      5-min Rain = 0
KBI1 111037Z 18009KT 15/14 A2995 RMK A01 T01460139  RH  095%=      5-min Rain = 0
KBI1 111038Z 18009KT 15/14 A2995 RMK A01 T01460139  RH  095%=      5-min Rain = 0
KBI1 111039Z 18009KT 15/14 A2995 RMK A01 T01460139  RH  095%=      5-min Rain = 0
KBI1 111040Z 18008KT 15/14 A2995 RMK A01 T01460139  RH  096%=      5-min Rain = 0
KBI1 111041Z 18007KT 15/14 A2995 RMK A01 T01460139  RH  096%=      5-min Rain = 0
KBI1 111042Z 19010KT 15/14 A2995 RMK A01 T01460139  RH  096%=      5-min Rain = 0
KBI1 111043Z 18011KT 15/14 A2995 RMK A01 T01460139  RH  096%=      5-min Rain = 0
KBI1 111044Z 18011KT 15/14 A2995 RMK A01 T01460139  RH  096%=      5-min Rain = 0
KBI1 111045Z 18013KT 15/14 A2995 RMK A01 T01460139  RH  095%=      5-min Rain = 0
KBI1 111046Z 18010KT 15/14 A2995 RMK A01 T01460139  RH  095%=      5-min Rain = 0
KBI1 111047Z 18009KT 15/14 A2995 RMK A01 T01460139  RH  096%=      5-min Rain = 0
KBI1 111048Z 18008KT 15/14 A2995 RMK A01 T01460139  RH  096%=      5-min Rain = 0
KBI1 111049Z 18009KT 15/14 A2995 RMK A01 T01460139  RH  096%=      5-min Rain = 0
KBI1 111050Z 18010KT 15/14 A2995 RMK A01 T01460139  RH  096%=      5-min Rain = 0
KBI1 111051Z 19009KT 15/14 A2995 RMK A01 T01460139  RH  096%=      5-min Rain = 0
KBI1 111052Z 19009KT 15/14 A2995 RMK A01 T01460139  RH  096%=      5-min Rain = 0
KBI1 111053Z 18008KT 15/14 A2995 RMK A01 T01460139  RH  096%=      5-min Rain = 0
KBI1 111054Z 18008KT 15/14 A2995 RMK A01 T01460139  RH  096%=      5-min Rain = 0
KBI1 111055Z 19009KT 15/14 A2995 RMK A01 T01460139  RH  096%=      5-min Rain = 0
KBI1 111056Z 18012KT 15/14 A2995 RMK A01 T01460139  RH  096%=      5-min Rain = 0
KBI1 111057Z 18010KT 15/14 A2995 RMK A01 T01460139  RH  096%=      5-min Rain = 0
KBI1 111058Z 18011KT 15/14 A2996 RMK A01 T01460139  RH  096%=      5-min Rain = 0
KBI1 111059Z 18011KT 15/14 A2996 RMK A01 T01460139  RH  096%=      5-min Rain = 0
KBI1 111100Z 18011KT 15/14 A2996 RMK A01 T01460139  RH  096%=      5-min Rain = 0
KBI1 111101Z 18008KT 15/14 A2996 RMK A01 T01460139  RH  096%=      5-min Rain = 0
KBI1 111102Z 18007G12KT 15/14 A2996 RMK A01 T01460139  RH  096%=      5-min Rain = 0
KBI1 111103Z 18011KT 15/14 A2996 RMK A01 T01460139  RH  096%=      5-min Rain = 0
KBI1 111104Z 18008KT 15/14 A2996 RMK A01 T01460140  RH  096%=      5-min Rain = 0
KBI1 111105Z 18010KT 15/14 A2996 RMK A01 T01460139  RH  096%=      5-min Rain = 0
KBI1 111106Z 18011KT 15/14 A2996 RMK A01 T01460139  RH  096%=      5-min Rain = 0
KBI1 111107Z 18011KT 15/14 A2996 RMK A01 T01460139  RH  096%=      5-min Rain = 0
KBI1 111108Z 18007KT 15/14 A2996 RMK A01 T01460139  RH  096%=      5-min Rain = 0
KBI1 111109Z 18009KT 15/14 A2996 RMK A01 T01460139  RH  096%=      5-min Rain = 0
KBI1 111110Z 18009KT 15/14 A2996 RMK A01 T01460140  RH  096%=      5-min Rain = 0
KBI1 111111Z 18009KT 15/14 A2996 RMK A01 T01460139  RH  096%=      5-min Rain = 0
KBI1 111112Z 18008KT 15/14 A2996 RMK A01 T01460139  RH  096%=      5-min Rain = 0
KBI1 111113Z 18008KT 15/14 A2996 RMK A01 T01460139  RH  096%=      5-min Rain = 0
KBI1 111114Z 18008KT 15/14 A2996 RMK A01 T01460139  RH  096%=      5-min Rain = 0
KBI1 111115Z 18010KT 15/14 A2996 RMK A01 T01460139  RH  096%=      5-min Rain = 0
KBI1 111116Z 18009KT 15/14 A2996 RMK A01 T01460139  RH  096%=      5-min Rain = 0
KBI1 111117Z 17009KT 15/14 A2996 RMK A01 T01450139  RH  096%=      5-min Rain = 0
KBI1 111118Z 18008KT 15/14 A2996 RMK A01 T01460139  RH  096%=      5-min Rain = 0
KBI1 111119Z 18010KT 15/14 A2996 RMK A01 T01460139  RH  096%=      5-min Rain = 0
KBI1 111120Z 18009KT 15/14 A2996 RMK A01 T01460139  RH  096%=      5-min Rain = 0
KBI1 111121Z 18009KT 15/14 A2996 RMK A01 T01450139  RH  096%=      5-min Rain = 0
KBI1 111122Z 18010KT 15/14 A2996 RMK A01 T01450139  RH  096%=      5-min Rain = 0
KBI1 111123Z 18011KT 15/14 A2996 RMK A01 T01450139  RH  096%=      5-min Rain = 0
KBI1 111124Z 18012KT 15/14 A2995 RMK A01 T01450138  RH  096%=      5-min Rain = 0
KBI1 111125Z 18009KT 15/14 A2996 RMK A01 T01450138  RH  096%=      5-min Rain = 0
KBI1 111126Z 18008KT 15/14 A2996 RMK A01 T01450138  RH  096%=      5-min Rain = 0
KBI1 111127Z 18009KT 15/14 A2996 RMK A01 T01450138  RH  096%=      5-min Rain = 0
KBI1 111128Z 19009KT 15/14 A2996 RMK A01 T01450138  RH  096%=      5-min Rain = 0
KBI1 111129Z 19010KT 14/14 A2996 RMK A01 T01440138  RH  096%=      5-min Rain = 0
KBI1 111130Z 18011KT 14/14 A2996 RMK A01 T01440138  RH  096%=      5-min Rain = 0
KBI1 111131Z 18012KT 14/14 A2996 RMK A01 T01440138  RH  096%=      5-min Rain = 0
KBI1 111132Z 18010KT 14/14 A2996 RMK A01 T01440138  RH  096%=      5-min Rain = 0
KBI1 111133Z 18011KT 14/14 A2996 RMK A01 T01440138  RH  096%=      5-min Rain = 0
KBI1 111134Z 18011KT 14/14 A2996 RMK A01 T01440138  RH  096%=      5-min Rain = 0
KBI1 111135Z 19010KT 14/14 A2996 RMK A01 T01440138  RH  096%=      5-min Rain = 0
KBI1 111136Z 19012KT 14/14 A2996 RMK A01 T01440138  RH  096%=      5-min Rain = 0
KBI1 111137Z 18010KT 14/14 A2996 RMK A01 T01440138  RH  096%=      5-min Rain = 0
KBI1 111138Z 18011KT 14/14 A2996 RMK A01 T01440138  RH  096%=      5-min Rain = 0
KBI1 111139Z 18009KT 14/14 A2996 RMK A01 T01440138  RH  096%=      5-min Rain = 0
KBI1 111140Z 18012KT 14/14 A2996 RMK A01 T01440138  RH  096%=      5-min Rain = 0
KBI1 111141Z 19010KT 14/14 A2996 RMK A01 T01440138  RH  096%=      5-min Rain = 0
KBI1 111142Z 19010KT 14/14 A2996 RMK A01 T01440138  RH  096%=      5-min Rain = 0
KBI1 111143Z 19010KT 14/14 A2996 RMK A01 T01440138  RH  096%=      5-min Rain = 0
KBI1 111144Z 19010KT 14/14 A2996 RMK A01 T01440138  RH  096%=      5-min Rain = 0
KBI1 111145Z 19010KT 14/14 A2996 RMK A01 T01440138  RH  096%=      5-min Rain = 0
KBI1 111146Z 19011KT 14/14 A2996 RMK A01 T01430138  RH  096%=      5-min Rain = 0
KBI1 111147Z 19011KT 14/14 A2996 RMK A01 T01430137  RH  096%=      5-min Rain = 0
KBI1 111148Z 19012KT 14/14 A2996 RMK A01 T01430138  RH  096%=      5-min Rain = 0
KBI1 111149Z 18012KT 14/14 A2996 RMK A01 T01430138  RH  096%=      5-min Rain = 0
KBI1 111150Z 19010KT 14/14 A2996 RMK A01 T01430137  RH  096%=      5-min Rain = 0
KBI1 111151Z 19011KT 14/14 A2996 RMK A01 T01430137  RH  097%=      5-min Rain = 0
KBI1 111152Z 19011KT 14/14 A2996 RMK A01 T01430138  RH  097%=      5-min Rain = 0
KBI1 111153Z 18009KT 14/14 A2996 RMK A01 T01430138  RH  097%=      5-min Rain = 0
KBI1 111154Z 18009KT 14/14 A2996 RMK A01 T01430138  RH  097%=      5-min Rain = 0
KBI1 111155Z 19011KT 14/14 A2996 RMK A01 T01430138  RH  097%=      5-min Rain = 0
KBI1 111156Z 19011KT 14/14 A2996 RMK A01 T01430138  RH  097%=      5-min Rain = 0
KBI1 111157Z 18010KT 14/14 A2996 RMK A01 T01430138  RH  097%=      5-min Rain = 0
KBI1 111158Z 18010KT 14/14 A2996 RMK A01 T01420137  RH  097%=      5-min Rain = 0
KBI1 111159Z 19008KT 14/14 A2996 RMK A01 T01420137  RH  097%=      5-min Rain = 0
KBI1 111200Z 19007KT 14/14 A2996 RMK A01 T01420137  RH  097%=      5-min Rain = 0
KBI1 111201Z 18010KT 14/14 A2996 RMK A01 T01420138  RH  097%=      5-min Rain = 0
KBI1 111202Z 18009KT 14/14 A2996 RMK A01 T01430138  RH  097%=      5-min Rain = 0
KBI1 111203Z 18010KT 14/14 A2996 RMK A01 T01420137  RH  097%=      5-min Rain = 0
KBI1 111204Z 18010KT 14/14 A2997 RMK A01 T01420137  RH  097%=      5-min Rain = 0
KBI1 111205Z 19010KT 14/14 A2997 RMK A01 T01430138  RH  097%=      5-min Rain = 0
KBI1 111206Z 19008KT 14/14 A2997 RMK A01 T01430138  RH  097%=      5-min Rain = 0
KBI1 111207Z 18009KT 14/14 A2997 RMK A01 T01420138  RH  097%=      5-min Rain = 0
KBI1 111208Z 18011KT 14/14 A2997 RMK A01 T01420138  RH  097%=      5-min Rain = 0
KBI1 111209Z 18010KT 14/14 A2997 RMK A01 T01420138  RH  097%=      5-min Rain = 0
KBI1 111210Z 18009KT 14/14 A2997 RMK A01 T01420138  RH  097%=      5-min Rain = 0
KBI1 111211Z 19007KT 14/14 A2997 RMK A01 T01420138  RH  097%=      5-min Rain = 0
KBI1 111212Z 19007KT 14/14 A2997 RMK A01 T01420138  RH  097%=      5-min Rain = 0
KBI1 111213Z 18007KT 14/14 A2997 RMK A01 T01420138  RH  097%=      5-min Rain = 0
KBI1 111214Z 18009KT 14/14 A2997 RMK A01 T01430138  RH  097%=      5-min Rain = 0
KBI1 111215Z 18008KT 14/14 A2997 RMK A01 T01420138  RH  097%=      5-min Rain = 0
KBI1 111216Z 19011KT 14/14 A2997 RMK A01 T01420138  RH  097%=      5-min Rain = 0
KBI1 111217Z 19009KT 14/14 A2997 RMK A01 T01420138  RH  097%=      5-min Rain = 0
KBI1 111218Z 19008KT 14/14 A2997 RMK A01 T01420138  RH  097%=      5-min Rain = 0
KBI1 111219Z 18007KT 14/14 A2997 RMK A01 T01420138  RH  097%=      5-min Rain = 0
KBI1 111220Z 18008KT 14/14 A2997 RMK A01 T01420138  RH  097%=      5-min Rain = 0
KBI1 111221Z 18006KT 14/14 A2997 RMK A01 T01430138  RH  097%=      5-min Rain = 0
KBI1 111222Z 19006KT 14/14 A2997 RMK A01 T01430138  RH  097%=      5-min Rain = 0
KBI1 111223Z 19006KT 14/14 A2997 RMK A01 T01430138  RH  097%=      5-min Rain = 0
KBI1 111224Z 19008KT 14/14 A2997 RMK A01 T01430138  RH  097%=      5-min Rain = 0
KBI1 111225Z 19007KT 14/14 A2997 RMK A01 T01430138  RH  097%=      5-min Rain = 0
KBI1 111226Z 19008KT 14/14 A2997 RMK A01 T01430138  RH  097%=      5-min Rain = 0
KBI1 111227Z 18008KT 14/14 A2997 RMK A01 T01430138  RH  097%=      5-min Rain = 0
KBI1 111228Z 18006KT 14/14 A2997 RMK A01 T01430138  RH  097%=      5-min Rain = 0
KBI1 111229Z 19007KT 14/14 A2997 RMK A01 T01430138  RH  097%=      5-min Rain = 0
KBI1 111230Z 19005G10KT 14/14 A2997 RMK A01 T01430139  RH  097%=      5-min Rain = 0
KBI1 111231Z 19009KT 14/14 A2997 RMK A01 T01430138  RH  097%=      5-min Rain = 0
KBI1 111232Z 19008KT 14/14 A2997 RMK A01 T01430138  RH  097%=      5-min Rain = 0
KBI1 111233Z 19006KT 14/14 A2997 RMK A01 T01430138  RH  097%=      5-min Rain = 0
KBI1 111234Z 18006KT 14/14 A2997 RMK A01 T01430138  RH  097%=      5-min Rain = 0
KBI1 111235Z 18007KT 14/14 A2997 RMK A01 T01420138  RH  097%=      5-min Rain = 0
KBI1 111236Z 18007KT 14/14 A2997 RMK A01 T01420137  RH  097%=      5-min Rain = 0
KBI1 111237Z 18007KT 14/14 A2997 RMK A01 T01420138  RH  097%=      5-min Rain = 0
KBI1 111238Z 18006KT 14/14 A2997 RMK A01 T01430138  RH  097%=      5-min Rain = 0
KBI1 111239Z 17007KT 14/14 A2997 RMK A01 T01420138  RH  097%=      5-min Rain = 0
KBI1 111240Z 18008KT 14/14 A2997 RMK A01 T01420138  RH  097%=      5-min Rain = 0
KBI1 111241Z 18008KT 14/14 A2998 RMK A01 T01420138  RH  097%=      5-min Rain = 0
KBI1 111242Z 18008KT 14/14 A2998 RMK A01 T01420138  RH  097%=      5-min Rain = 0
KBI1 111243Z 19010KT 14/14 A2998 RMK A01 T01420138  RH  097%=      5-min Rain = 0
KBI1 111244Z 18007KT 14/14 A2998 RMK A01 T01420138  RH  097%=      5-min Rain = 0
KBI1 111245Z 18007KT 14/14 A2998 RMK A01 T01420138  RH  097%=      5-min Rain = 0
KBI1 111246Z 18008KT 14/14 A2998 RMK A01 T01420138  RH  097%=      5-min Rain = 0
KBI1 111247Z 19007KT 14/14 A2998 RMK A01 T01420138  RH  097%=      5-min Rain = 0
KBI1 111248Z 19008KT 14/14 A2998 RMK A01 T01430138  RH  097%=      5-min Rain = 0
KBI1 111249Z 18007KT 14/14 A2998 RMK A01 T01420138  RH  097%=      5-min Rain = 0
KBI1 111250Z 18008KT 14/14 A2998 RMK A01 T01420138  RH  097%=      5-min Rain = 0
KBI1 111251Z 18009KT 14/14 A2998 RMK A01 T01420138  RH  097%=      5-min Rain = 0
KBI1 111252Z 18009KT 14/14 A2998 RMK A01 T01430138  RH  097%=      5-min Rain = 0
KBI1 111253Z 18009KT 14/14 A2998 RMK A01 T01430138  RH  097%=      5-min Rain = 0
KBI1 111254Z 19008KT 14/14 A2998 RMK A01 T01420138  RH  097%=      5-min Rain = 0
KBI1 111255Z 19008KT 14/14 A2999 RMK A01 T01430138  RH  097%=      5-min Rain = 0
KBI1 111256Z 19009KT 14/14 A2999 RMK A01 T01420138  RH  097%=      5-min Rain = 0
KBI1 111257Z 18008KT 14/14 A2998 RMK A01 T01420138  RH  097%=      5-min Rain = 0
KBI1 111258Z 18008KT 14/14 A2998 RMK A01 T01420138  RH  097%=      5-min Rain = 0
KBI1 111259Z 19007KT 14/14 A2999 RMK A01 T01420138  RH  097%=      5-min Rain = 0
KBI1 111300Z 19009KT 14/14 A2999 RMK A01 T01420138  RH  097%=      5-min Rain = 0
KBI1 111301Z 19008KT 14/14 A2999 RMK A01 T01420138  RH  097%=      5-min Rain = 0
KBI1 111302Z 19008KT 14/14 A2999 RMK A01 T01420138  RH  097%=      5-min Rain = 0
KBI1 111303Z 18008KT 14/14 A2998 RMK A01 T01420138  RH  097%=      5-min Rain = 0
KBI1 111304Z 18008KT 14/14 A2998 RMK A01 T01420138  RH  097%=      5-min Rain = 0
KBI1 111305Z 19007KT 14/14 A2998 RMK A01 T01420139  RH  098%=      5-min Rain = 0
KBI1 111306Z 18007KT 14/14 A2998 RMK A01 T01420139  RH  098%=      5-min Rain = 0
KBI1 111307Z 19008KT 14/14 A2998 RMK A01 T01420138  RH  098%=      5-min Rain = 0
KBI1 111308Z 19009KT 14/14 A2998 RMK A01 T01420138  RH  098%=      5-min Rain = 0
KBI1 111309Z 18009KT 14/14 A2999 RMK A01 T01420138  RH  098%=      5-min Rain = 0
KBI1 111310Z 18008KT 14/14 A2999 RMK A01 T01420139  RH  098%=      5-min Rain = 0
KBI1 111311Z 19007KT 14/14 A2999 RMK A01 T01420138  RH  098%=      5-min Rain = 0
KBI1 111312Z 18007KT 14/14 A2999 RMK A01 T01420139  RH  098%=      5-min Rain = 0
KBI1 111313Z 18008KT 14/14 A2999 RMK A01 T01420139  RH  098%=      5-min Rain = 0
KBI1 111314Z 19007KT 14/14 A2999 RMK A01 T01420139  RH  098%=      5-min Rain = 0
KBI1 111315Z 19007KT 14/14 A2999 RMK A01 T01420139  RH  098%=      5-min Rain = 0
KBI1 111316Z 19007KT 14/14 A2999 RMK A01 T01420139  RH  098%=      5-min Rain = 0
KBI1 111317Z 19006KT 14/14 A2999 RMK A01 T01420139  RH  098%=      5-min Rain = 0
KBI1 111318Z 18006KT 14/14 A2999 RMK A01 T01420139  RH  098%=      5-min Rain = 0
KBI1 111319Z 18007KT 14/14 A2999 RMK A01 T01420139  RH  098%=      5-min Rain = 0
KBI1 111320Z 18007KT 14/14 A2998 RMK A01 T01420139  RH  098%=      5-min Rain = 0
KBI1 111321Z 18007KT 14/14 A2998 RMK A01 T01420139  RH  098%=      5-min Rain = 0
KBI1 111322Z 17005KT 14/14 A2999 RMK A01 T01420139  RH  098%=      5-min Rain = 0
KBI1 111323Z 17006KT 14/14 A2998 RMK A01 T01420139  RH  098%=      5-min Rain = 0
KBI1 111324Z 17005KT 14/14 A2999 RMK A01 T01420139  RH  098%=      5-min Rain = 0
KBI1 111325Z 16004KT 14/14 A2999 RMK A01 T01430139  RH  098%=      5-min Rain = 0
KBI1 111326Z 16006KT 14/14 A2999 RMK A01 T01420139  RH  098%=      5-min Rain = 0
KBI1 111327Z 16004KT 14/14 A2999 RMK A01 T01420139  RH  098%=      5-min Rain = 0
KBI1 111328Z 17005KT 14/14 A2999 RMK A01 T01420139  RH  098%=      5-min Rain = 0
KBI1 111329Z 18003KT 14/14 A2999 RMK A01 T01420139  RH  098%=      5-min Rain = 0
KBI1 111330Z 18005KT 14/14 A2999 RMK A01 T01420139  RH  098%=      5-min Rain = 0
KBI1 111331Z 16004KT 14/14 A2999 RMK A01 T01430139  RH  098%=      5-min Rain = 0
KBI1 111332Z 15004KT 14/14 A2999 RMK A01 T01420139  RH  098%=      5-min Rain = 0
KBI1 111333Z 15004KT 14/14 A2999 RMK A01 T01420139  RH  098%=      5-min Rain = 0
KBI1 111334Z 15005KT 14/14 A2999 RMK A01 T01420139  RH  098%=      5-min Rain = 0
KBI1 111335Z 16004KT 14/14 A2999 RMK A01 T01420139  RH  098%=      5-min Rain = 0
KBI1 111336Z 16005KT 14/14 A2999 RMK A01 T01430139  RH  098%=      5-min Rain = 0
KBI1 111337Z 16004KT 14/14 A2999 RMK A01 T01420139  RH  098%=      5-min Rain = 0
KBI1 111338Z 16004KT 14/14 A2999 RMK A01 T01420139  RH  098%=      5-min Rain = 0
KBI1 111339Z 16004KT 14/14 A2999 RMK A01 T01420139  RH  098%=      5-min Rain = 0
KBI1 111340Z 16005KT 14/14 A2999 RMK A01 T01420139  RH  098%=      5-min Rain = 0
KBI1 111341Z 16005KT 14/14 A2999 RMK A01 T01420139  RH  098%=      5-min Rain = 0
KBI1 111342Z 16006KT 14/14 A2999 RMK A01 T01430139  RH  098%=      5-min Rain = 0
KBI1 111343Z 16004KT 14/14 A2999 RMK A01 T01430139  RH  098%=      5-min Rain = 0
KBI1 111344Z 16004KT 14/14 A2999 RMK A01 T01430139  RH  098%=      5-min Rain = 0
KBI1 111345Z 16005KT 14/14 A2999 RMK A01 T01430139  RH  098%=      5-min Rain = 0
KBI1 111346Z 16006KT 14/14 A2999 RMK A01 T01430139  RH  098%=      5-min Rain = 0
KBI1 111347Z 16005KT 14/14 A30 RMK A01 T01430139  RH  098%=      5-min Rain = 0
KBI1 111348Z 16006KT 14/14 A30 RMK A01 T01430139  RH  098%=      5-min Rain = 0
KBI1 111349Z 16007KT 14/14 A30 RMK A01 T01430139  RH  098%=      5-min Rain = 0
KBI1 111350Z 16006KT 14/14 A30 RMK A01 T01430139  RH  098%=      5-min Rain = 0
KBI1 111351Z 16007KT 14/14 A30 RMK A01 T01430139  RH  098%=      5-min Rain = 0
KBI1 111352Z 16007KT 14/14 A30 RMK A01 T01430139  RH  098%=      5-min Rain = 0
KBI1 111353Z 15007KT 14/14 A30 RMK A01 T01430139  RH  098%=      5-min Rain = 0
KBI1 111354Z 15007KT 14/14 A30 RMK A01 T01430139  RH  098%=      5-min Rain = 0
KBI1 111355Z 16009KT 14/14 A30 RMK A01 T01430139  RH  098%=      5-min Rain = 0
KBI1 111356Z 16007KT 14/14 A30 RMK A01 T01430139  RH  098%=      5-min Rain = 0
KBI1 111357Z 16009KT 14/14 A30 RMK A01 T01430139  RH  098%=      5-min Rain = 0
KBI1 111358Z 15008KT 14/14 A30 RMK A01 T01430139  RH  097%=      5-min Rain = 0
KBI1 111359Z 16008KT 14/14 A3001 RMK A01 T01430139  RH  097%=      5-min Rain = 0
KBI1 111400Z 15007KT 14/14 A3001 RMK A01 T01430139  RH  097%=      5-min Rain = 0
KBI1 111401Z 16008KT 14/14 A3001 RMK A01 T01430139  RH  097%=      5-min Rain = 0
KBI1 111402Z 16008KT 14/14 A3001 RMK A01 T01430139  RH  097%=      5-min Rain = 0
KBI1 111403Z 17008KT 14/14 A3001 RMK A01 T01430139  RH  097%=      5-min Rain = 0
KBI1 111404Z 17010KT 14/14 A3002 RMK A01 T01430139  RH  097%=      5-min Rain = 0
KBI1 111405Z 17009KT 14/14 A3002 RMK A01 T01440140  RH  097%=      5-min Rain = 0
KBI1 111406Z 17012KT 14/14 A3002 RMK A01 T01440140  RH  097%=      5-min Rain = 0
KBI1 111407Z 17010KT 14/14 A3003 RMK A01 T01440140  RH  097%=      5-min Rain = 0
KBI1 111408Z 16007KT 14/14 A3003 RMK A01 T01440140  RH  097%=      5-min Rain = 0
KBI1 111409Z 16005KT 14/14 A3003 RMK A01 T01440140  RH  097%=      5-min Rain = 0
KBI1 111410Z 16006KT 14/14 A3003 RMK A01 T01440140  RH  097%=      5-min Rain = 0
KBI1 111411Z 18007KT 14/14 A3003 RMK A01 T01440140  RH  097%=      5-min Rain = 0
KBI1 111412Z 18007KT 14/14 A3004 RMK A01 T01440140  RH  097%=      5-min Rain = 0
KBI1 111413Z 20005KT 15/14 A3005 RMK A01 T01450140  RH  097%=      5-min Rain = 0
KBI1 111414Z 17003KT 15/14 A3005 RMK A01 T01450141  RH  097%=      5-min Rain = 0
KBI1 111415Z 20004KT 15/14 A3005 RMK A01 T01450140  RH  097%=      5-min Rain = 0
KBI1 111416Z 21002KT 15/14 A3006 RMK A01 T01450141  RH  097%=      5-min Rain = 0
KBI1 111417Z 26001KT 15/14 A3006 RMK A01 T01450141  RH  097%=      5-min Rain = 0
KBI1 111418Z 22002KT 15/14 A3006 RMK A01 T01450141  RH  097%=      5-min Rain = 0
KBI1 111419Z 21004KT 15/14 A3006 RMK A01 T01450141  RH  097%=      5-min Rain = 0
KBI1 111420Z 21004KT 15/14 A3006 RMK A01 T01450141  RH  097%=      5-min Rain = 0
KBI1 111421Z 22003KT 15/14 A3006 RMK A01 T01460141  RH  097%=      5-min Rain = 0
KBI1 111422Z 25002KT 15/14 A3006 RMK A01 T01460141  RH  097%=      5-min Rain = 0
KBI1 111423Z 27003KT 15/14 A3007 RMK A01 T01460141  RH  097%=      5-min Rain = 0
KBI1 111424Z 28002KT 15/14 A3007 RMK A01 T01460141  RH  097%=      5-min Rain = 0
KBI1 111425Z 29003KT 15/14 A3007 RMK A01 T01460141  RH  097%=      5-min Rain = 0
KBI1 111426Z 29002KT 15/14 A3007 RMK A01 T01460141  RH  097%=      5-min Rain = 0
KBI1 111427Z 24001KT 15/14 A3007 RMK A01 T01460141  RH  097%=      5-min Rain = 0
KBI1 111428Z 24002KT 15/14 A3006 RMK A01 T01470142  RH  097%=      5-min Rain = 0
KBI1 111429Z 25003KT 15/14 A3007 RMK A01 T01460141  RH  097%=      5-min Rain = 0
KBI1 111430Z 24003KT 15/14 A3007 RMK A01 T01470141  RH  097%=      5-min Rain = 0
KBI1 111431Z 25004KT 15/14 A3007 RMK A01 T01470142  RH  097%=      5-min Rain = 0
KBI1 111432Z 25005KT 15/14 A3007 RMK A01 T01460141  RH  097%=      5-min Rain = 0
KBI1 111433Z 26004KT 15/14 A3007 RMK A01 T01470142  RH  097%=      5-min Rain = 0
KBI1 111434Z 27003KT 15/14 A3007 RMK A01 T01470141  RH  097%=      5-min Rain = 0
KBI1 111435Z 27003KT 15/14 A3007 RMK A01 T01470141  RH  096%=      5-min Rain = 0
KBI1 111436Z 28003KT 15/14 A3007 RMK A01 T01470141  RH  096%=      5-min Rain = 0
KBI1 111437Z 27003KT 15/14 A3007 RMK A01 T01470141  RH  096%=      5-min Rain = 0
KBI1 111438Z 27003KT 15/14 A3007 RMK A01 T01470141  RH  096%=      5-min Rain = 0
KBI1 111439Z 29003KT 15/14 A3007 RMK A01 T01470141  RH  096%=      5-min Rain = 0
KBI1 111440Z 30003KT 15/14 A3007 RMK A01 T01470141  RH  096%=      5-min Rain = 0
KBI1 111441Z 31003KT 15/14 A3007 RMK A01 T01470141  RH  096%=      5-min Rain = 0
KBI1 111442Z 33002KT 15/14 A3007 RMK A01 T01480142  RH  096%=      5-min Rain = 0
KBI1 111443Z 34003KT 15/14 A3007 RMK A01 T01480142  RH  096%=      5-min Rain = 0
KBI1 111444Z 33003KT 15/14 A3007 RMK A01 T01490142  RH  096%=      5-min Rain = 0
KBI1 111445Z 34003KT 15/14 A3007 RMK A01 T01490142  RH  096%=      5-min Rain = 0
KBI1 111446Z 32003KT 15/14 A3007 RMK A01 T01490143  RH  096%=      5-min Rain = 0
KBI1 111447Z 32003KT 15/14 A3007 RMK A01 T01500143  RH  096%=      5-min Rain = 0
KBI1 111448Z 32003KT 15/14 A3007 RMK A01 T01500143  RH  096%=      5-min Rain = 0
KBI1 111449Z 31005KT 15/14 A3008 RMK A01 T01500143  RH  096%=      5-min Rain = 0
KBI1 111450Z 31005KT 15/14 A3008 RMK A01 T01500143  RH  096%=      5-min Rain = 0
KBI1 111451Z 31006KT 15/14 A3008 RMK A01 T01510144  RH  096%=      5-min Rain = 0
KBI1 111452Z 32006KT 15/14 A3008 RMK A01 T01510143  RH  095%=      5-min Rain = 0
KBI1 111453Z 33008KT 15/14 A3008 RMK A01 T01510144  RH  095%=      5-min Rain = 0
KBI1 111454Z 33006KT 15/14 A3008 RMK A01 T01520143  RH  095%=      5-min Rain = 0
KBI1 111455Z 33007KT 15/14 A3008 RMK A01 T01530144  RH  094%=      5-min Rain = 0
KBI1 111456Z 34006KT 15/14 A3008 RMK A01 T01530144  RH  094%=      5-min Rain = 0
KBI1 111457Z 35007KT 15/15 A3008 RMK A01 T01540145  RH  094%=      5-min Rain = 0
KBI1 111458Z 34006KT 15/15 A3008 RMK A01 T01540145  RH  094%=      5-min Rain = 0
KBI1 111459Z 34009KT 15/14 A3008 RMK A01 T01540144  RH  094%=      5-min Rain = 0
KBI1 111500Z 34008KT 15/14 A3008 RMK A01 T01540143  RH  093%=      5-min Rain = 0
KBI1 111501Z 35008KT 16/14 A3008 RMK A01 T01550144  RH  093%=      5-min Rain = 0
KBI1 111502Z 35008KT 16/14 A3008 RMK A01 T01550144  RH  093%=      5-min Rain = 0
KBI1 111503Z 35012KT 16/14 A3008 RMK A01 T01550143  RH  093%=      5-min Rain = 0
KBI1 111504Z 35012KT 16/14 A3008 RMK A01 T01550142  RH  092%=      5-min Rain = 0
KBI1 111505Z 35012G17KT 16/14 A3008 RMK A01 T01550141  RH  092%=      5-min Rain = 0
KBI1 111506Z 35013KT 15/14 A3008 RMK A01 T01540140  RH  091%=      5-min Rain = 0
KBI1 111507Z 35012KT 15/14 A3008 RMK A01 T01540140  RH  091%=      5-min Rain = 0
KBI1 111508Z 00011KT 15/14 A3008 RMK A01 T01540140  RH  091%=      5-min Rain = 0
KBI1 111509Z 00012G18KT 15/14 A3009 RMK A01 T01540139  RH  091%=      5-min Rain = 0
KBI1 111510Z 00012KT 15/14 A3009 RMK A01 T01540139  RH  091%=      5-min Rain = 0
KBI1 111511Z 00010KT 15/14 A3009 RMK A01 T01540139  RH  091%=      5-min Rain = 0
KBI1 111512Z 01010KT 15/14 A3009 RMK A01 T01540139  RH  091%=      5-min Rain = 0
KBI1 111513Z 01010KT 15/14 A3009 RMK A01 T01540140  RH  091%=      5-min Rain = 0
KBI1 111514Z 00011KT 15/14 A3009 RMK A01 T01540140  RH  091%=      5-min Rain = 0
KBI1 111515Z 01011KT 15/14 A3009 RMK A01 T01540140  RH  091%=      5-min Rain = 0
KBI1 111516Z 01013KT 15/14 A3009 RMK A01 T01530140  RH  092%=      5-min Rain = 0
KBI1 111517Z 02012KT 15/14 A3009 RMK A01 T01530140  RH  092%=      5-min Rain = 0
KBI1 111518Z 03013KT 15/14 A3009 RMK A01 T01530140  RH  092%=      5-min Rain = 0
KBI1 111519Z 02012KT 15/14 A3009 RMK A01 T01520140  RH  092%=      5-min Rain = 0
KBI1 111520Z 02014KT 15/14 A3009 RMK A01 T01520140  RH  092%=      5-min Rain = 0
KBI1 111521Z 03014KT 15/14 A3009 RMK A01 T01520139  RH  092%=      5-min Rain = 0
KBI1 111522Z 02011KT 15/14 A3009 RMK A01 T01510139  RH  092%=      5-min Rain = 0
KBI1 111523Z 02010KT 15/14 A3009 RMK A01 T01520139  RH  092%=      5-min Rain = 0
KBI1 111524Z 02013KT 15/14 A3009 RMK A01 T01510138  RH  092%=      5-min Rain = 0
KBI1 111525Z 02010KT 15/14 A3009 RMK A01 T01510139  RH  092%=      5-min Rain = 0
KBI1 111526Z 02010G15KT 15/14 A3009 RMK A01 T01510138  RH  092%=      5-min Rain = 0
KBI1 111527Z 02011KT 15/14 A3009 RMK A01 T01510138  RH  092%=      5-min Rain = 0
KBI1 111528Z 01010KT 15/14 A3009 RMK A01 T01520138  RH  092%=      5-min Rain = 0
KBI1 111529Z 02025G33KT 15/13 A301 RMK A01 T01490133  RH  090%=      5-min Rain = 0
KBI1 111530Z 02025KT 14/11 A301 RMK A01 T01390112  RH  084%=      5-min Rain = 0
KBI1 111531Z 01024G29KT 13/10 A3011 RMK A01 T01300103  RH  083%=      5-min Rain = 0
KBI1 111532Z 02023G29KT 13/10 A3011 RMK A01 T01260099  RH  084%=      5-min Rain = 0
KBI1 111533Z 02019G24KT 12/10 A3011 RMK A01 T01240099  RH  085%=      5-min Rain = 0
KBI1 111534Z 02020G25KT 12/10 A3011 RMK A01 T01220098  RH  085%=      5-min Rain = 0
KBI1 111535Z 02018G26KT 12/10 A3012 RMK A01 T01210098  RH  085%=      5-min Rain = 0
KBI1 111536Z 01020G25KT 12/10 A3012 RMK A01 T01210097  RH  085%=      5-min Rain = 0
KBI1 111537Z 01022KT 12/10 A3012 RMK A01 T01200096  RH  086%=      5-min Rain = 0
KBI1 111538Z 01021KT 12/10 A3013 RMK A01 T01190095  RH  085%=      5-min Rain = 0
KBI1 111539Z 01022KT 12/10 A3013 RMK A01 T01180095  RH  085%=      5-min Rain = 0
KBI1 111540Z 02019G24KT 12/09 A3013 RMK A01 T01180094  RH  085%=      5-min Rain = 0
KBI1 111541Z 02018KT 12/09 A3013 RMK A01 T01180094  RH  086%=      5-min Rain = 0
KBI1 111542Z 02022KT 12/09 A3013 RMK A01 T01180094  RH  086%=      5-min Rain = 0
KBI1 111543Z 02018G23KT 12/09 A3013 RMK A01 T01170093  RH  085%=      5-min Rain = 0
KBI1 111544Z 02014G20KT 12/09 A3013 RMK A01 T01170093  RH  086%=      5-min Rain = 0
KBI1 111545Z 02015KT 12/09 A3013 RMK A01 T01170093  RH  086%=      5-min Rain = 0
KBI1 111546Z 02019G25KT 12/09 A3014 RMK A01 T01160093  RH  085%=      5-min Rain = 0
KBI1 111547Z 01017KT 12/09 A3014 RMK A01 T01150091  RH  085%=      5-min Rain = 0
KBI1 111548Z 01019G24KT 12/09 A3014 RMK A01 T01150090  RH  085%=      5-min Rain = 0
KBI1 111549Z 01016G23KT 12/09 A3014 RMK A01 T01150089  RH  084%=      5-min Rain = 0
KBI1 111550Z 01016KT 11/09 A3014 RMK A01 T01140089  RH  084%=      5-min Rain = 0
KBI1 111551Z 02019G27KT 11/09 A3014 RMK A01 T01140088  RH  084%=      5-min Rain = 0
KBI1 111552Z 02018G23KT 11/09 A3014 RMK A01 T01130086  RH  084%=      5-min Rain = 0
KBI1 111553Z 02020G25KT 11/09 A3014 RMK A01 T01130086  RH  084%=      5-min Rain = 0
KBI1 111554Z 02018G24KT 11/09 A3015 RMK A01 T01120085  RH  083%=      5-min Rain = 0
KBI1 111555Z 02021KT 11/08 A3015 RMK A01 T01120084  RH  083%=      5-min Rain = 0
KBI1 111556Z 02019KT 11/08 A3015 RMK A01 T01120084  RH  083%=      5-min Rain = 0
KBI1 111557Z 02017KT 11/08 A3015 RMK A01 T01120084  RH  083%=      5-min Rain = 0
KBI1 111558Z 02017KT 11/08 A3015 RMK A01 T01120084  RH  083%=      5-min Rain = 0
KBI1 111559Z 01015KT 11/08 A3015 RMK A01 T01120084  RH  083%=      5-min Rain = 0
KBI1 111600Z 01019KT 11/08 A3016 RMK A01 T01120084  RH  083%=      5-min Rain = 0
KBI1 111601Z 01017KT 11/08 A3016 RMK A01 T01120083  RH  083%=      5-min Rain = 0
KBI1 111602Z 02016G22KT 11/08 A3016 RMK A01 T01120083  RH  083%=      5-min Rain = 0
KBI1 111603Z 01017G22KT 11/08 A3016 RMK A01 T01120083  RH  083%=      5-min Rain = 0
KBI1 111604Z 01019KT 11/08 A3016 RMK A01 T01120084  RH  083%=      5-min Rain = 0
KBI1 111605Z 02018KT 11/08 A3017 RMK A01 T01120083  RH  083%=      5-min Rain = 0
KBI1 111606Z 01018G24KT 11/08 A3017 RMK A01 T01110082  RH  082%=      5-min Rain = 0
KBI1 111607Z 02018G24KT 11/08 A3017 RMK A01 T01110081  RH  082%=      5-min Rain = 0
KBI1 111608Z 00019G24KT 11/08 A3018 RMK A01 T01110081  RH  082%=      5-min Rain = 0
KBI1 111609Z 02015G22KT 11/08 A3018 RMK A01 T01100080  RH  082%=      5-min Rain = 0
KBI1 111610Z 01019G25KT 11/08 A3018 RMK A01 T01100080  RH  082%=      5-min Rain = 0
KBI1 111611Z 02020G26KT 11/08 A3018 RMK A01 T01090079  RH  082%=      5-min Rain = 0
KBI1 111612Z 02019G24KT 11/08 A3018 RMK A01 T01080077  RH  082%=      5-min Rain = 0
KBI1 111613Z 02020KT 11/08 A3018 RMK A01 T01070076  RH  081%=      5-min Rain = 0
KBI1 111614Z 01016G21KT 11/08 A3019 RMK A01 T01060076  RH  081%=      5-min Rain = 0
KBI1 111615Z 01022KT 11/08 A3019 RMK A01 T01060075  RH  081%=      5-min Rain = 0
KBI1 111616Z 01021KT 11/07 A3019 RMK A01 T01050074  RH  081%=      5-min Rain = 0
KBI1 111617Z 01020KT 10/07 A3019 RMK A01 T01040073  RH  081%=      5-min Rain = 0
KBI1 111618Z 01018KT 10/07 A3019 RMK A01 T01030073  RH  081%=      5-min Rain = 0
KBI1 111619Z 01016KT 10/07 A302 RMK A01 T01030072  RH  082%=      5-min Rain = 0
KBI1 111620Z 00019G24KT 10/07 A3019 RMK A01 T01020072  RH  082%=      5-min Rain = 0
KBI1 111621Z 01019G24KT 10/07 A302 RMK A01 T01010071  RH  081%=      5-min Rain = 0
KBI1 111622Z 01021G27KT 10/07 A302 RMK A01 T01000068  RH  081%=      5-min Rain = 0
KBI1 111623Z 01017KT 10/07 A302 RMK A01 T00980067  RH  081%=      5-min Rain = 0
KBI1 111624Z 01021KT 10/07 A302 RMK A01 T00970066  RH  081%=      5-min Rain = 0
KBI1 111625Z 01021G26KT 10/07 A302 RMK A01 T00960065  RH  081%=      5-min Rain = 0
KBI1 111626Z 01019KT 10/06 A302 RMK A01 T00950064  RH  081%=      5-min Rain = 0
KBI1 111627Z 00016KT 10/07 A302 RMK A01 T00950065  RH  082%=      5-min Rain = 0
KBI1 111628Z 02021G29KT 10/07 A3021 RMK A01 T00950065  RH  082%=      5-min Rain = 0
KBI1 111629Z 02021G27KT 09/06 A3021 RMK A01 T00930062  RH  081%=      5-min Rain = 0
KBI1 111630Z 02016G21KT 09/06 A3021 RMK A01 T00910061  RH  081%=      5-min Rain = 0
KBI1 111631Z 02019KT 09/06 A3021 RMK A01 T00890060  RH  082%=      5-min Rain = 0
KBI1 111632Z 02022G27KT 09/06 A3022 RMK A01 T00880059  RH  082%=      5-min Rain = 0
KBI1 111633Z 02019G24KT 09/06 A3022 RMK A01 T00870057  RH  082%=      5-min Rain = 0
KBI1 111634Z 02018G24KT 09/06 A3022 RMK A01 T00850057  RH  083%=      5-min Rain = 0
KBI1 111635Z 03019KT 09/06 A3022 RMK A01 T00850057  RH  083%=      5-min Rain = 0
KBI1 111636Z 03018G25KT 08/06 A3022 RMK A01 T00840057  RH  083%=      5-min Rain = 0
KBI1 111637Z 03020KT 08/06 A3022 RMK A01 T00830057  RH  083%=      5-min Rain = 0
KBI1 111638Z 02016G21KT 08/06 A3022 RMK A01 T00820056  RH  083%=      5-min Rain = 0
KBI1 111639Z 02018G23KT 08/06 A3023 RMK A01 T00820056  RH  084%=      5-min Rain = 0
KBI1 111640Z 02018G24KT 08/06 A3023 RMK A01 T00810055  RH  084%=      5-min Rain = 0
KBI1 111641Z 02019G26KT 08/06 A3023 RMK A01 T00810055  RH  084%=      5-min Rain = 0
KBI1 111642Z 02018G23KT 08/05 A3023 RMK A01 T00800053  RH  083%=      5-min Rain = 0
KBI1 111643Z 02018G25KT 08/05 A3023 RMK A01 T00790053  RH  083%=      5-min Rain = 0
KBI1 111644Z 02025G30KT 08/05 A3023 RMK A01 T00780051  RH  083%=      5-min Rain = 0
KBI1 111645Z 01018G24KT 08/05 A3023 RMK A01 T00760049  RH  083%=      5-min Rain = 0
KBI1 111646Z 01021G26KT 08/05 A3024 RMK A01 T00760050  RH  084%=      5-min Rain = 0
KBI1 111647Z 02016G21KT 08/05 A3024 RMK A01 T00750049  RH  083%=      5-min Rain = 0
KBI1 111648Z 01019KT 08/05 A3024 RMK A01 T00750049  RH  083%=      5-min Rain = 0
KBI1 111649Z 01023G28KT 08/05 A3023 RMK A01 T00750048  RH  083%=      5-min Rain = 0
KBI1 111650Z 01020G25KT 08/05 A3023 RMK A01 T00750047  RH  082%=      5-min Rain = 0
KBI1 111651Z 02019KT 07/05 A3023 RMK A01 T00740047  RH  083%=      5-min Rain = 0
KBI1 111652Z 02019KT 07/05 A3023 RMK A01 T00740047  RH  083%=      5-min Rain = 0
KBI1 111653Z 01018G23KT 07/05 A3023 RMK A01 T00740047  RH  083%=      5-min Rain = 0
KBI1 111654Z 02016G23KT 08/05 A3023 RMK A01 T00750047  RH  083%=      5-min Rain = 0
KBI1 111655Z 02016G22KT 07/05 A3023 RMK A01 T00740046  RH  082%=      5-min Rain = 0
KBI1 111656Z 02019G24KT 07/05 A3023 RMK A01 T00740045  RH  082%=      5-min Rain = 0
KBI1 111657Z 02017KT 07/04 A3024 RMK A01 T00730043  RH  081%=      5-min Rain = 0
KBI1 111658Z 03020G26KT 07/04 A3024 RMK A01 T00720041  RH  081%=      5-min Rain = 0
KBI1 111659Z 03017KT 07/04 A3024 RMK A01 T00710038  RH  080%=      5-min Rain = 0
KBI1 111700Z 02017G22KT 07/04 A3024 RMK A01 T00700037  RH  079%=      5-min Rain = 0
KBI1 111701Z 03017G23KT 07/04 A3024 RMK A01 T00690036  RH  079%=      5-min Rain = 0
KBI1 111702Z 03017KT 07/04 A3024 RMK A01 T00690035  RH  079%=      5-min Rain = 0
KBI1 111703Z 02019KT 07/03 A3024 RMK A01 T00690034  RH  079%=      5-min Rain = 0
KBI1 111704Z 02023G28KT 07/03 A3024 RMK A01 T00680033  RH  078%=      5-min Rain = 0
KBI1 111705Z 02019KT 07/03 A3024 RMK A01 T00670033  RH  078%=      5-min Rain = 0
KBI1 111706Z 02018G24KT 07/03 A3024 RMK A01 T00670033  RH  079%=      5-min Rain = 0
KBI1 111707Z 01017G23KT 07/04 A3024 RMK A01 T00670035  RH  080%=      5-min Rain = 0
KBI1 111708Z 01021G28KT 07/03 A3024 RMK A01 T00670033  RH  079%=      5-min Rain = 0
KBI1 111709Z 02020G25KT 07/03 A3024 RMK A01 T00650031  RH  079%=      5-min Rain = 0
KBI1 111710Z 02020G25KT 06/03 A3024 RMK A01 T00630032  RH  080%=      5-min Rain = 0
KBI1 111711Z 02021G28KT 06/03 A3024 RMK A01 T00620032  RH  081%=      5-min Rain = 0
KBI1 111712Z 01020KT 06/03 A3024 RMK A01 T00600031  RH  081%=      5-min Rain = 0
KBI1 111713Z 01020G25KT 06/03 A3024 RMK A01 T00590032  RH  083%=      5-min Rain = 0
KBI1 111714Z 01022KT 06/03 A3024 RMK A01 T00580032  RH  083%=      5-min Rain = 0
KBI1 111715Z 00022KT 06/03 A3024 RMK A01 T00570031  RH  084%=      5-min Rain = 0
KBI1 111716Z 01019G24KT 06/03 A3024 RMK A01 T00560031  RH  084%=      5-min Rain = 0
KBI1 111717Z 01015KT 06/03 A3024 RMK A01 T00560032  RH  085%=      5-min Rain = 0
KBI1 111718Z 01021G26KT 06/03 A3024 RMK A01 T00560033  RH  085%=      5-min Rain = 0
KBI1 111719Z 02020G25KT 05/03 A3025 RMK A01 T00540030  RH  085%=      5-min Rain = 0
KBI1 111720Z 02020G27KT 05/03 A3025 RMK A01 T00530029  RH  085%=      5-min Rain = 0
KBI1 111721Z 02022G27KT 05/03 A3025 RMK A01 T00500026  RH  085%=      5-min Rain = 0
KBI1 111722Z 02022G29KT 05/03 A3025 RMK A01 T00490025  RH  085%=      5-min Rain = 0
KBI1 111723Z 02022KT 05/03 A3025 RMK A01 T00470025  RH  085%=      5-min Rain = 0
KBI1 111724Z 02024G29KT 05/03 A3025 RMK A01 T00470025  RH  086%=      5-min Rain = 0
KBI1 111725Z 02021G26KT 05/02 A3024 RMK A01 T00460024  RH  086%=      5-min Rain = 0
KBI1 111726Z 02021G26KT 05/03 A3025 RMK A01 T00460025  RH  086%=      5-min Rain = 0
KBI1 111727Z 02021G26KT 05/03 A3025 RMK A01 T00460026  RH  087%=      5-min Rain = 0
KBI1 111728Z 02020G25KT 05/03 A3025 RMK A01 T00450025  RH  087%=      5-min Rain = 0
KBI1 111729Z 02020G28KT 05/03 A3025 RMK A01 T00450025  RH  087%=      5-min Rain = 0
KBI1 111730Z 03023G28KT 04/03 A3025 RMK A01 T00440025  RH  087%=      5-min Rain = 0
KBI1 111731Z 01023G28KT 04/02 A3025 RMK A01 T00430022  RH  087%=      5-min Rain = 0
KBI1 111732Z 01022G28KT 04/02 A3025 RMK A01 T00420021  RH  086%=      5-min Rain = 0
KBI1 111733Z 02025G30KT 04/02 A3025 RMK A01 T00410021  RH  086%=      5-min Rain = 0
KBI1 111734Z 01022KT 04/02 A3025 RMK A01 T00400019  RH  086%=      5-min Rain = 0
KBI1 111735Z 01024G29KT 04/02 A3025 RMK A01 T00400020  RH  087%=      5-min Rain = 0
KBI1 111736Z 01023G30KT 04/02 A3025 RMK A01 T00390018  RH  086%=      5-min Rain = 0
KBI1 111737Z 01026G33KT 04/02 A3025 RMK A01 T00390018  RH  087%=      5-min Rain = 0
KBI1 111738Z 01024G32KT 04/02 A3025 RMK A01 T00380017  RH  086%=      5-min Rain = 0
KBI1 111739Z 01023G28KT 04/02 A3025 RMK A01 T00380017  RH  086%=      5-min Rain = 0
KBI1 111740Z 01023G30KT 04/02 A3025 RMK A01 T00380018  RH  087%=      5-min Rain = 0
KBI1 111741Z 01024G30KT 04/02 A3025 RMK A01 T00380018  RH  087%=      5-min Rain = 0
KBI1 111742Z 00025G30KT 04/02 A3025 RMK A01 T00380017  RH  087%=      5-min Rain = 0
KBI1 111743Z 01023KT 04/02 A3026 RMK A01 T00370017  RH  086%=      5-min Rain = 0
KBI1 111744Z 01025G30KT 04/02 A3026 RMK A01 T00370017  RH  086%=      5-min Rain = 0
KBI1 111745Z 01023KT 04/02 A3025 RMK A01 T00370015  RH  086%=      5-min Rain = 0
KBI1 111746Z 01019G26KT 04/02 A3025 RMK A01 T00370016  RH  086%=      5-min Rain = 0
KBI1 111747Z 02017G24KT 04/02 A3025 RMK A01 T00370017  RH  087%=      5-min Rain = 0
KBI1 111748Z 02021G26KT 04/02 A3025 RMK A01 T00370018  RH  087%=      5-min Rain = 0
KBI1 111749Z 02024G30KT 04/02 A3025 RMK A01 T00370017  RH  087%=      5-min Rain = 0
KBI1 111750Z 01025G31KT 04/01 A3026 RMK A01 T00360014  RH  086%=      5-min Rain = 0
KBI1 111751Z 02023KT 04/01 A3026 RMK A01 T00350014  RH  086%=      5-min Rain = 0
KBI1 111752Z 02020G27KT 04/01 A3026 RMK A01 T00350014  RH  086%=      5-min Rain = 0
KBI1 111753Z 02023G30KT 04/01 A3026 RMK A01 T00350014  RH  086%=      5-min Rain = 0
KBI1 111754Z 01021G26KT 04/01 A3025 RMK A01 T00350014  RH  086%=      5-min Rain = 0
KBI1 111755Z 01025KT 04/02 A3026 RMK A01 T00350015  RH  087%=      5-min Rain = 0
KBI1 111756Z 02022G27KT 04/01 A3025 RMK A01 T00350014  RH  086%=      5-min Rain = 0
KBI1 111757Z 01020G27KT 04/01 A3025 RMK A01 T00350014  RH  086%=      5-min Rain = 0
KBI1 111758Z 01022G29KT 04/01 A3025 RMK A01 T00350014  RH  086%=      5-min Rain = 0
KBI1 111759Z 01023G28KT 04/01 A3025 RMK A01 T00350014  RH  086%=      5-min Rain = 0
KBI1 111800Z 01019G28KT 04/02 A3025 RMK A01 T00350015  RH  086%=      5-min Rain = 0
KBI1 111801Z 02021G27KT 04/01 A3025 RMK A01 T00350014  RH  086%=      5-min Rain = 0
KBI1 111802Z 02020G28KT 04/01 A3025 RMK A01 T00350014  RH  086%=      5-min Rain = 0
KBI1 111803Z 02020G31KT 04/01 A3025 RMK A01 T00350014  RH  086%=      5-min Rain = 0
KBI1 111804Z 01026G33KT 03/01 A3026 RMK A01 T00340012  RH  086%=      5-min Rain = 0
KBI1 111805Z 01020G25KT 03/01 A3026 RMK A01 T00320010  RH  085%=      5-min Rain = 0
KBI1 111806Z 01027KT 03/01 A3026 RMK A01 T00320010  RH  086%=      5-min Rain = 0
KBI1 111807Z 01025G31KT 03/01 A3026 RMK A01 T00310009  RH  085%=      5-min Rain = 0
KBI1 111808Z 01027KT 03/01 A3027 RMK A01 T00300008  RH  085%=      5-min Rain = 0
KBI1 111809Z 01024KT 03/01 A3027 RMK A01 T00300007  RH  085%=      5-min Rain = 0
KBI1 111810Z 01024G29KT 03/01 A3027 RMK A01 T00300008  RH  085%=      5-min Rain = 0
KBI1 111811Z 01023G29KT 03/01 A3027 RMK A01 T00300009  RH  086%=      5-min Rain = 0
KBI1 111812Z 01021G30KT 03/01 A3027 RMK A01 T00300009  RH  086%=      5-min Rain = 0
KBI1 111813Z 01023KT 03/01 A3026 RMK A01 T00300009  RH  086%=      5-min Rain = 0
KBI1 111814Z 01021G26KT 03/01 A3027 RMK A01 T00290009  RH  086%=      5-min Rain = 0
KBI1 111815Z 01025G31KT 03/01 A3027 RMK A01 T00290009  RH  087%=      5-min Rain = 0
KBI1 111816Z 02025KT 03/01 A3027 RMK A01 T00290008  RH  086%=      5-min Rain = 0
KBI1 111817Z 02024G31KT 03/01 A3027 RMK A01 T00280007  RH  086%=      5-min Rain = 0
KBI1 111818Z 02021KT 03/01 A3027 RMK A01 T00280008  RH  086%=      5-min Rain = 0
KBI1 111819Z 02020G27KT 03/01 A3027 RMK A01 T00280008  RH  086%=      5-min Rain = 0
KBI1 111820Z 02022G29KT 03/01 A3027 RMK A01 T00280008  RH  086%=      5-min Rain = 0
KBI1 111821Z 02021G27KT 03/01 A3027 RMK A01 T00280008  RH  087%=      5-min Rain = 0
KBI1 111822Z 02022G31KT 03/01 A3027 RMK A01 T00280008  RH  087%=      5-min Rain = 0
KBI1 111823Z 02025G32KT 03/01 A3028 RMK A01 T00270008  RH  087%=      5-min Rain = 0
KBI1 111824Z 02023KT 03/01 A3028 RMK A01 T00270007  RH  087%=      5-min Rain = 0
KBI1 111825Z 02021G26KT 03/01 A3028 RMK A01 T00260007  RH  087%=      5-min Rain = 0
KBI1 111826Z 02023KT 03/01 A3028 RMK A01 T00270008  RH  088%=      5-min Rain = 0
KBI1 111827Z 02020G26KT 03/01 A3028 RMK A01 T00270008  RH  088%=      5-min Rain = 0
KBI1 111828Z 02023G28KT 03/01 A3029 RMK A01 T00260008  RH  088%=      5-min Rain = 0
KBI1 111829Z 02019G25KT 03/01 A3029 RMK A01 T00260007  RH  088%=      5-min Rain = 0
KBI1 111830Z 01021KT 03/01 A3029 RMK A01 T00250007  RH  088%=      5-min Rain = 0
KBI1 111831Z 01021KT 03/01 A3029 RMK A01 T00250007  RH  088%=      5-min Rain = 0
KBI1 111832Z 01020KT 03/01 A3029 RMK A01 T00260008  RH  088%=      5-min Rain = 0
KBI1 111833Z 01020G31KT 03/01 A3029 RMK A01 T00260008  RH  088%=      5-min Rain = 0
KBI1 111834Z 01021G28KT 03/01 A3029 RMK A01 T00260007  RH  087%=      5-min Rain = 0
KBI1 111835Z 01021G26KT 03/01 A3029 RMK A01 T00260006  RH  087%=      5-min Rain = 0
KBI1 111836Z 01021G26KT 03/01 A303 RMK A01 T00260006  RH  087%=      5-min Rain = 0
KBI1 111837Z 01018G23KT 03/01 A303 RMK A01 T00260006  RH  087%=      5-min Rain = 0
KBI1 111838Z 01020G25KT 03/01 A303 RMK A01 T00250006  RH  087%=      5-min Rain = 0
KBI1 111839Z 00020KT 03/01 A303 RMK A01 T00250006  RH  087%=      5-min Rain = 0
KBI1 111840Z 01024G29KT 03/01 A303 RMK A01 T00250005  RH  087%=      5-min Rain = 0
KBI1 111841Z 01020G25KT 03/00 A303 RMK A01 T00250004  RH  086%=      5-min Rain = 0
KBI1 111842Z 01024KT 03/00 A303 RMK A01 T00250004  RH  086%=      5-min Rain = 0
KBI1 111843Z 01025G32KT 02/00 A303 RMK A01 T00230002  RH  086%=      5-min Rain = 0
KBI1 111844Z 01025G32KT 02/00 A303 RMK A01 T00230001  RH  085%=      5-min Rain = 0
KBI1 111845Z 02022G28KT 02/00 A303 RMK A01 T00230001  RH  085%=      5-min Rain = 0
KBI1 111846Z 02022KT 02/00 A303 RMK A01 T00230001  RH  085%=      5-min Rain = 0
KBI1 111847Z 02022G28KT 02/00 A303 RMK A01 T002300-0  RH  085%=      5-min Rain = 0
KBI1 111848Z 01021KT 02/00 A303 RMK A01 T00230000  RH  085%=      5-min Rain = 0
KBI1 111849Z 02017G22KT 02/00 A303 RMK A01 T00230001  RH  085%=      5-min Rain = 0
KBI1 111850Z 02018G23KT 02/00 A303 RMK A01 T00230001  RH  086%=      5-min Rain = 0
KBI1 111851Z 02020KT 02/00 A303 RMK A01 T00230001  RH  086%=      5-min Rain = 0
KBI1 111852Z 02021G26KT 02/00 A303 RMK A01 T00230001  RH  085%=      5-min Rain = 0
KBI1 111853Z 02019G25KT 02/00 A3031 RMK A01 T00230000  RH  085%=      5-min Rain = 0
KBI1 111854Z 01020G26KT 02/00 A3031 RMK A01 T00230001  RH  085%=      5-min Rain = 0
KBI1 111855Z 01020G25KT 02/00 A3031 RMK A01 T00230001  RH  085%=      5-min Rain = 0
KBI1 111856Z 01017G22KT 02/00 A3031 RMK A01 T00230001  RH  085%=      5-min Rain = 0
KBI1 111857Z 02018G23KT 02/00 A3031 RMK A01 T00230001  RH  085%=      5-min Rain = 0
KBI1 111858Z 02018KT 02/00 A3031 RMK A01 T00230001  RH  085%=      5-min Rain = 0
KBI1 111859Z 02017KT 02/00 A3031 RMK A01 T00230001  RH  085%=      5-min Rain = 0
KBI1 111900Z 02019G24KT 02/00 A3031 RMK A01 T00230000  RH  085%=      5-min Rain = 0
KBI1 111901Z 01015KT 02/00 A3031 RMK A01 T00230000  RH  085%=      5-min Rain = 0
KBI1 111902Z 01020KT 02/00 A3031 RMK A01 T00230001  RH  086%=      5-min Rain = 0
KBI1 111903Z 01018KT 02/00 A3031 RMK A01 T00230001  RH  085%=      5-min Rain = 0
KBI1 111904Z 02019KT 02/00 A3031 RMK A01 T00230000  RH  085%=      5-min Rain = 0
KBI1 111905Z 02016G21KT 02/00 A3031 RMK A01 T00240001  RH  085%=      5-min Rain = 0
KBI1 111906Z 01022KT 02/00 A3031 RMK A01 T00240000  RH  085%=      5-min Rain = 0
KBI1 111907Z 01020G25KT 02/00 A3031 RMK A01 T002400-0  RH  084%=      5-min Rain = 0
KBI1 111908Z 01019G25KT 02/M00 A3031 RMK A01 T00231001  RH  084%=      5-min Rain = 0
KBI1 111909Z 01021G27KT 02/M00 A3031 RMK A01 T00231001  RH  084%=      5-min Rain = 0
KBI1 111910Z 01024G29KT 02/M00 A3031 RMK A01 T00231002  RH  084%=      5-min Rain = 0
KBI1 111911Z 01019G26KT 02/M00 A3031 RMK A01 T00211004  RH  083%=      5-min Rain = 0
KBI1 111912Z 01022KT 02/M00 A3031 RMK A01 T00211003  RH  084%=      5-min Rain = 0
KBI1 111913Z 01018G25KT 02/M00 A3031 RMK A01 T00211003  RH  084%=      5-min Rain = 0
KBI1 111914Z 01016G22KT 02/M00 A3032 RMK A01 T00211002  RH  085%=      5-min Rain = 0
KBI1 111915Z 01018KT 02/M00 A3032 RMK A01 T00211001  RH  085%=      5-min Rain = 0
KBI1 111916Z 00022KT 02/M00 A3032 RMK A01 T00211003  RH  085%=      5-min Rain = 0
KBI1 111917Z 01020G25KT 02/M01 A3032 RMK A01 T00191005  RH  084%=      5-min Rain = 0
KBI1 111918Z 00020G25KT 02/M01 A3032 RMK A01 T00181005  RH  085%=      5-min Rain = 0
KBI1 111919Z 01021KT 02/M01 A3032 RMK A01 T00171006  RH  084%=      5-min Rain = 0
KBI1 111920Z 36024KT 02/M01 A3032 RMK A01 T00171007  RH  084%=      5-min Rain = 0
KBI1 111921Z 35018KT 02/M01 A3031 RMK A01 T00161008  RH  084%=      5-min Rain = 0
KBI1 111922Z 02017KT 02/M01 A3031 RMK A01 T00171006  RH  085%=      5-min Rain = 0
KBI1 111923Z 01022G28KT 02/M01 A3031 RMK A01 T00181005  RH  085%=      5-min Rain = 0
KBI1 111924Z 01019G24KT 02/M01 A3031 RMK A01 T00181006  RH  084%=      5-min Rain = 0
KBI1 111925Z 00020G25KT 02/M01 A3031 RMK A01 T00171006  RH  085%=      5-min Rain = 0
KBI1 111926Z 01022G27KT 02/M01 A3032 RMK A01 T00171006  RH  084%=      5-min Rain = 0
KBI1 111927Z 01020G25KT 02/M01 A3032 RMK A01 T00171007  RH  084%=      5-min Rain = 0
KBI1 111928Z 01021KT 02/M01 A3032 RMK A01 T00171008  RH  084%=      5-min Rain = 0
KBI1 111929Z 01018KT 02/M01 A3032 RMK A01 T00161008  RH  084%=      5-min Rain = 0
KBI1 111930Z 00015G21KT 02/M01 A3032 RMK A01 T00161007  RH  084%=      5-min Rain = 0
KBI1 111931Z 01021KT 02/M01 A3032 RMK A01 T00171006  RH  085%=      5-min Rain = 0
KBI1 111932Z 01022KT 02/M01 A3032 RMK A01 T00171009  RH  083%=      5-min Rain = 0
KBI1 111933Z 00022G29KT 02/M01 A3032 RMK A01 T00161011  RH  083%=      5-min Rain = 0
KBI1 111934Z 00023KT 02/M01 A3032 RMK A01 T00151011  RH  083%=      5-min Rain = 0
KBI1 111935Z 01021G28KT 02/M01 A3032 RMK A01 T00151011  RH  083%=      5-min Rain = 0
KBI1 111936Z 00021G27KT 02/M01 A3032 RMK A01 T00151011  RH  083%=      5-min Rain = 0
KBI1 111937Z 00021G27KT 01/M01 A3032 RMK A01 T00141011  RH  083%=      5-min Rain = 0
KBI1 111938Z 00022G27KT 01/M01 A3032 RMK A01 T00141011  RH  083%=      5-min Rain = 0
KBI1 111939Z 01024G29KT 01/M01 A3032 RMK A01 T00141012  RH  083%=      5-min Rain = 0
KBI1 111940Z 01019G24KT 01/M01 A3033 RMK A01 T00131012  RH  083%=      5-min Rain = 0
KBI1 111941Z 00020G25KT 01/M01 A3032 RMK A01 T00131012  RH  084%=      5-min Rain = 0
KBI1 111942Z 00022G28KT 01/M01 A3032 RMK A01 T00131011  RH  084%=      5-min Rain = 0
KBI1 111943Z 01022G27KT 01/M01 A3032 RMK A01 T00121013  RH  084%=      5-min Rain = 0
KBI1 111944Z 01020KT 01/M01 A3032 RMK A01 T00111013  RH  084%=      5-min Rain = 0
KBI1 111945Z 01020G25KT 01/M01 A3032 RMK A01 T00111013  RH  084%=      5-min Rain = 0
KBI1 111946Z 02019G24KT 01/M01 A3033 RMK A01 T00121012  RH  084%=      5-min Rain = 0
KBI1 111947Z 02021G27KT 01/M01 A3032 RMK A01 T00121013  RH  083%=      5-min Rain = 0
KBI1 111948Z 01020G27KT 01/M01 A3032 RMK A01 T00121013  RH  083%=      5-min Rain = 0
KBI1 111949Z 01021KT 01/M01 A3032 RMK A01 T00121013  RH  083%=      5-min Rain = 0
KBI1 111950Z 01018G26KT 01/M01 A3032 RMK A01 T00121013  RH  083%=      5-min Rain = 0
KBI1 111951Z 01019KT 01/M01 A3032 RMK A01 T00131012  RH  083%=      5-min Rain = 0
KBI1 111952Z 02022G29KT 01/M01 A3032 RMK A01 T00131013  RH  083%=      5-min Rain = 0
KBI1 111953Z 01023G30KT 01/M01 A3032 RMK A01 T00131014  RH  082%=      5-min Rain = 0
KBI1 111954Z 01021G26KT 01/M01 A3032 RMK A01 T00131014  RH  082%=      5-min Rain = 0
KBI1 111955Z 00024G29KT 01/M01 A3032 RMK A01 T00131014  RH  082%=      5-min Rain = 0
KBI1 111956Z 01020G26KT 01/M01 A3032 RMK A01 T00131014  RH  082%=      5-min Rain = 0
KBI1 111957Z 01018KT 01/M01 A3032 RMK A01 T00131014  RH  082%=      5-min Rain = 0
KBI1 111958Z 01021G27KT 01/M01 A3032 RMK A01 T00141014  RH  082%=      5-min Rain = 0
KBI1 111959Z 01022G28KT 01/M01 A3032 RMK A01 T00141014  RH  082%=      5-min Rain = 0
KBI1 112000Z 36023KT 01/M01 A3033 RMK A01 T00141014  RH  082%=      5-min Rain = 0
KBI1 112001Z 00022G27KT 01/M02 A3033 RMK A01 T00131015  RH  081%=      5-min Rain = 0
KBI1 112002Z 00024KT 01/M02 A3033 RMK A01 T00121017  RH  081%=      5-min Rain = 0
KBI1 112003Z 00023G29KT 01/M02 A3033 RMK A01 T00111018  RH  081%=      5-min Rain = 0
KBI1 112004Z 00021G27KT 01/M02 A3033 RMK A01 T00101019  RH  081%=      5-min Rain = 0
KBI1 112005Z 01022G27KT 01/M02 A3033 RMK A01 T00101019  RH  081%=      5-min Rain = 0
KBI1 112006Z 01022G27KT 01/M02 A3033 RMK A01 T00101020  RH  081%=      5-min Rain = 0
KBI1 112007Z 01023G29KT 01/M02 A3033 RMK A01 T00101020  RH  081%=      5-min Rain = 0
KBI1 112008Z 01022G27KT 01/M02 A3033 RMK A01 T00091021  RH  081%=      5-min Rain = 0
KBI1 112009Z 01019G26KT 01/M02 A3033 RMK A01 T00091021  RH  081%=      5-min Rain = 0
KBI1 112010Z 01018KT 01/M02 A3033 RMK A01 T00091020  RH  081%=      5-min Rain = 0
KBI1 112011Z 36019G24KT 01/M02 A3033 RMK A01 T00091019  RH  081%=      5-min Rain = 0
KBI1 112012Z 36019G27KT 01/M02 A3033 RMK A01 T00101019  RH  081%=      5-min Rain = 0
KBI1 112013Z 00021KT 01/M02 A3033 RMK A01 T00091021  RH  081%=      5-min Rain = 0
KBI1 112014Z 00022KT 01/M02 A3033 RMK A01 T00091021  RH  080%=      5-min Rain = 0
KBI1 112015Z 00021KT 01/M02 A3033 RMK A01 T00091021  RH  080%=      5-min Rain = 0
KBI1 112016Z 00018KT 01/M02 A3033 RMK A01 T00091021  RH  081%=      5-min Rain = 0
KBI1 112017Z 01021KT 01/M02 A3034 RMK A01 T00091021  RH  081%=      5-min Rain = 0
KBI1 112018Z 01021G27KT 01/M02 A3034 RMK A01 T00091021  RH  080%=      5-min Rain = 0
KBI1 112019Z 00021KT 01/M02 A3034 RMK A01 T00091021  RH  081%=      5-min Rain = 0
KBI1 112020Z 36017G23KT 01/M02 A3034 RMK A01 T00091021  RH  081%=      5-min Rain = 0
KBI1 112021Z 36020G26KT 01/M02 A3034 RMK A01 T00091021  RH  081%=      5-min Rain = 0
KBI1 112022Z 00020G25KT 01/M02 A3034 RMK A01 T00091021  RH  080%=      5-min Rain = 0
KBI1 112023Z 01018G24KT 01/M02 A3034 RMK A01 T00091022  RH  080%=      5-min Rain = 0
KBI1 112024Z 36019G25KT 01/M02 A3034 RMK A01 T00091022  RH  080%=      5-min Rain = 0
KBI1 112025Z 35017G22KT 01/M02 A3034 RMK A01 T00091022  RH  080%=      5-min Rain = 0
KBI1 112026Z 00018G23KT 01/M02 A3034 RMK A01 T00091022  RH  080%=      5-min Rain = 0
KBI1 112027Z 35019KT 01/M02 A3034 RMK A01 T00091022  RH  080%=      5-min Rain = 0
KBI1 112028Z 36018KT 01/M02 A3034 RMK A01 T00091022  RH  080%=      5-min Rain = 0
KBI1 112029Z 35017G25KT 01/M02 A3034 RMK A01 T00091022  RH  080%=      5-min Rain = 0
KBI1 112030Z 35021G26KT 01/M02 A3034 RMK A01 T00081024  RH  079%=      5-min Rain = 0
KBI1 112031Z 36018KT 01/M03 A3034 RMK A01 T00071025  RH  079%=      5-min Rain = 0
KBI1 112032Z 00020G28KT 01/M02 A3034 RMK A01 T00071024  RH  080%=      5-min Rain = 0
KBI1 112033Z 36019G24KT 01/M02 A3034 RMK A01 T00071024  RH  080%=      5-min Rain = 0
KBI1 112034Z 00021KT 01/M02 A3034 RMK A01 T00071024  RH  080%=      5-min Rain = 0
KBI1 112035Z 01017G23KT 01/M02 A3034 RMK A01 T00071024  RH  080%=      5-min Rain = 0
KBI1 112036Z 00015KT 01/M02 A3034 RMK A01 T00071022  RH  081%=      5-min Rain = 0
KBI1 112037Z 00015G21KT 01/M02 A3034 RMK A01 T00071022  RH  081%=      5-min Rain = 0
KBI1 112038Z 36016G21KT 01/M02 A3034 RMK A01 T00081021  RH  081%=      5-min Rain = 0
KBI1 112039Z 01020G27KT 01/M02 A3034 RMK A01 T00081023  RH  080%=      5-min Rain = 0
KBI1 112040Z 01016KT 01/M02 A3034 RMK A01 T00071023  RH  080%=      5-min Rain = 0
KBI1 112041Z 36016KT 01/M02 A3034 RMK A01 T00071022  RH  081%=      5-min Rain = 0
KBI1 112042Z 00015G20KT 01/M02 A3034 RMK A01 T00071023  RH  080%=      5-min Rain = 0
KBI1 112043Z 01015G22KT 01/M02 A3034 RMK A01 T00071022  RH  081%=      5-min Rain = 0
KBI1 112044Z 00018G23KT 01/M02 A3034 RMK A01 T00081021  RH  081%=      5-min Rain = 0
KBI1 112045Z 35017G24KT 01/M02 A3035 RMK A01 T00081022  RH  080%=      5-min Rain = 0
KBI1 112046Z 36019G24KT 01/M03 A3035 RMK A01 T00061025  RH  080%=      5-min Rain = 0
KBI1 112047Z 36020G25KT 01/M03 A3035 RMK A01 T00051026  RH  080%=      5-min Rain = 0
KBI1 112048Z 36018KT 01/M03 A3035 RMK A01 T00051026  RH  080%=      5-min Rain = 0
KBI1 112049Z 00015KT 01/M03 A3035 RMK A01 T00051025  RH  080%=      5-min Rain = 0
KBI1 112050Z 00015KT 01/M03 A3035 RMK A01 T00051025  RH  080%=      5-min Rain = 0
KBI1 112051Z 36015G23KT 01/M02 A3036 RMK A01 T00061024  RH  080%=      5-min Rain = 0
KBI1 112052Z 00021G26KT 01/M03 A3036 RMK A01 T00061025  RH  080%=      5-min Rain = 0
KBI1 112053Z 36019G24KT 01/M03 A3036 RMK A01 T00051027  RH  079%=      5-min Rain = 0
KBI1 112054Z 36021G28KT 00/M03 A3036 RMK A01 T00041028  RH  079%=      5-min Rain = 0
KBI1 112055Z 36019G25KT 00/M03 A3036 RMK A01 T00031030  RH  078%=      5-min Rain = 0
KBI1 112056Z 35019G24KT 00/M03 A3036 RMK A01 T00031030  RH  078%=      5-min Rain = 0
KBI1 112057Z 00020KT 00/M03 A3036 RMK A01 T00031030  RH  078%=      5-min Rain = 0
KBI1 112058Z 00019KT 00/M03 A3036 RMK A01 T00031031  RH  078%=      5-min Rain = 0
KBI1 112059Z 36022KT 00/M03 A3037 RMK A01 T00041031  RH  078%=      5-min Rain = 0
KBI1 112100Z 36019G25KT 00/M03 A3037 RMK A01 T00031033  RH  077%=      5-min Rain = 0
KBI1 112101Z 01021KT 00/M03 A3037 RMK A01 T00021033  RH  077%=      5-min Rain = 0
KBI1 112102Z 00020G25KT 00/M03 A3037 RMK A01 T00031032  RH  077%=      5-min Rain = 0
KBI1 112103Z 00018G23KT 00/M03 A3037 RMK A01 T00031032  RH  077%=      5-min Rain = 0
KBI1 112104Z 36015G20KT 00/M03 A3037 RMK A01 T00031032  RH  077%=      5-min Rain = 0
KBI1 112105Z 00014G19KT 00/M03 A3037 RMK A01 T00041031  RH  077%=      5-min Rain = 0
KBI1 112106Z 01014G19KT 01/M03 A3038 RMK A01 T00051029  RH  078%=      5-min Rain = 0
KBI1 112107Z 01019KT 01/M03 A3038 RMK A01 T00051030  RH  077%=      5-min Rain = 0
KBI1 112108Z 00018KT 00/M03 A3038 RMK A01 T00041032  RH  077%=      5-min Rain = 0
KBI1 112109Z 01019G24KT 00/M03 A3038 RMK A01 T00041032  RH  077%=      5-min Rain = 0
KBI1 112110Z 01018G23KT 00/M03 A3038 RMK A01 T00041032  RH  077%=      5-min Rain = 0
KBI1 112111Z 01021G27KT 00/M03 A3038 RMK A01 T00031033  RH  077%=      5-min Rain = 0
KBI1 112112Z 01019G26KT 00/M03 A3038 RMK A01 T00031034  RH  077%=      5-min Rain = 0
KBI1 112113Z 01015KT 00/M03 A3038 RMK A01 T00021033  RH  077%=      5-min Rain = 0
KBI1 112114Z 01016G22KT 00/M03 A3038 RMK A01 T00031032  RH  078%=      5-min Rain = 0
KBI1 112115Z 01020KT 00/M03 A3038 RMK A01 T00031032  RH  077%=      5-min Rain = 0
KBI1 112116Z 00019KT 00/M03 A3038 RMK A01 T00021033  RH  077%=      5-min Rain = 0
KBI1 112117Z 01017G24KT 00/M03 A3038 RMK A01 T00021032  RH  077%=      5-min Rain = 0
KBI1 112118Z 00020KT 00/M03 A3038 RMK A01 T00021033  RH  077%=      5-min Rain = 0
KBI1 112119Z 36021G26KT 00/M03 A3038 RMK A01 T00021033  RH  078%=      5-min Rain = 0
KBI1 112120Z 01024KT 00/M03 A3038 RMK A01 T00021032  RH  078%=      5-min Rain = 0
KBI1 112121Z 01022G27KT 00/M03 A3038 RMK A01 T00021033  RH  078%=      5-min Rain = 0
KBI1 112122Z 01023KT 00/M03 A3038 RMK A01 T00011034  RH  078%=      5-min Rain = 0
KBI1 112123Z 01018KT 00/04 A3038 RMK A01 T00-00-35  RH  078%=      5-min Rain = 0
KBI1 112124Z 00017G23KT 00/03 A3038 RMK A01 T00000-33  RH  078%=      5-min Rain = 0
KBI1 112125Z 01019G28KT 00/M03 A3038 RMK A01 T00011032  RH  078%=      5-min Rain = 0
KBI1 112126Z 01022KT 00/M03 A3038 RMK A01 T00011033  RH  078%=      5-min Rain = 0
KBI1 112127Z 01021G26KT 00/M03 A3038 RMK A01 T00011033  RH  078%=      5-min Rain = 0
KBI1 112128Z 01023G29KT 00/M03 A3038 RMK A01 T00011033  RH  078%=      5-min Rain = 0
KBI1 112129Z 00020KT 00/03 A3038 RMK A01 T00000-34  RH  078%=      5-min Rain = 0
KBI1 112130Z 00020G26KT 00/03 A3038 RMK A01 T00000-34  RH  078%=      5-min Rain = 0
KBI1 112131Z 01018KT 00/03 A3038 RMK A01 T00-00-34  RH  078%=      5-min Rain = 0
KBI1 112132Z 01019G24KT 00/03 A3038 RMK A01 T00000-33  RH  078%=      5-min Rain = 0
KBI1 112133Z 01020KT 00/03 A3038 RMK A01 T00000-33  RH  078%=      5-min Rain = 0
KBI1 112134Z 00020G25KT 00/M03 A3038 RMK A01 T00011033  RH  078%=      5-min Rain = 0
KBI1 112135Z 00018KT 00/03 A3038 RMK A01 T00-00-34  RH  078%=      5-min Rain = 0
KBI1 112136Z 01019KT 00/03 A3038 RMK A01 T00-00-33  RH  078%=      5-min Rain = 0
KBI1 112137Z 01016G21KT 00/03 A3038 RMK A01 T00-00-33  RH  078%=      5-min Rain = 0
KBI1 112138Z 01014KT 00/03 A3038 RMK A01 T00-00-33  RH  079%=      5-min Rain = 0
KBI1 112139Z 01016KT 00/M03 A3038 RMK A01 T00011032  RH  079%=      5-min Rain = 0
KBI1 112140Z 00014G19KT 00/M03 A3038 RMK A01 T00011031  RH  079%=      5-min Rain = 0
KBI1 112141Z 01015G24KT 00/M03 A3038 RMK A01 T00011031  RH  079%=      5-min Rain = 0
KBI1 112142Z 00021G26KT 00/M03 A3038 RMK A01 T00011032  RH  079%=      5-min Rain = 0
KBI1 112143Z 01018G23KT 00/03 A3038 RMK A01 T00000-33  RH  078%=      5-min Rain = 0
KBI1 112144Z 01015KT 00/03 A3038 RMK A01 T00000-33  RH  078%=      5-min Rain = 0
KBI1 112145Z 36019G24KT 00/M03 A3038 RMK A01 T00011032  RH  079%=      5-min Rain = 0
KBI1 112146Z 01022KT 00/M03 A3038 RMK A01 T00011033  RH  078%=      5-min Rain = 0
KBI1 112147Z 02019KT 00/03 A3038 RMK A01 T00-00-34  RH  078%=      5-min Rain = 0
KBI1 112148Z 02017G24KT M00/M03 A3038 RMK A01 T10011034  RH  078%=      5-min Rain = 0
KBI1 112149Z 02018G23KT M00/M03 A3038 RMK A01 T10011034  RH  078%=      5-min Rain = 0
KBI1 112150Z 01020G26KT M00/M04 A3038 RMK A01 T10011035  RH  078%=      5-min Rain = 0
KBI1 112151Z 01019G25KT M00/M04 A3038 RMK A01 T10011035  RH  078%=      5-min Rain = 0
KBI1 112152Z 02023G29KT M00/M04 A3038 RMK A01 T10011035  RH  078%=      5-min Rain = 0
KBI1 112153Z 01020G26KT M00/M04 A3038 RMK A01 T10011036  RH  077%=      5-min Rain = 0
KBI1 112154Z 02018G24KT M00/M04 A3038 RMK A01 T10021035  RH  078%=      5-min Rain = 0
KBI1 112155Z 02018KT M00/M04 A3038 RMK A01 T10021036  RH  078%=      5-min Rain = 0
KBI1 112156Z 02016KT M00/M04 A3038 RMK A01 T10021036  RH  078%=      5-min Rain = 0
KBI1 112157Z 01018KT M00/M04 A3038 RMK A01 T10021035  RH  078%=      5-min Rain = 0
KBI1 112158Z 02013KT M00/M03 A3038 RMK A01 T10021034  RH  079%=      5-min Rain = 0
KBI1 112159Z 02012KT M00/M03 A3038 RMK A01 T10011033  RH  079%=      5-min Rain = 0
KBI1 112200Z 01012KT 00/03 A3039 RMK A01 T00-00-33  RH  079%=      5-min Rain = 0
KBI1 112201Z 01015G20KT 00/03 A3039 RMK A01 T00-00-32  RH  079%=      5-min Rain = 0
KBI1 112202Z 01012KT 00/03 A3039 RMK A01 T00-00-33  RH  079%=      5-min Rain = 0
KBI1 112203Z 01015KT 00/03 A3039 RMK A01 T00000-32  RH  079%=      5-min Rain = 0
KBI1 112204Z 01011G16KT 00/03 A3039 RMK A01 T00000-32  RH  079%=      5-min Rain = 0
KBI1 112205Z 01016KT 00/M03 A3039 RMK A01 T00011031  RH  080%=      5-min Rain = 0
KBI1 112206Z 01019G24KT 00/03 A3039 RMK A01 T00000-31  RH  079%=      5-min Rain = 0
KBI1 112207Z 01018KT 00/03 A304 RMK A01 T00-00-32  RH  079%=      5-min Rain = 0
KBI1 112208Z 01017G24KT M00/M03 A304 RMK A01 T10011031  RH  080%=      5-min Rain = 0
KBI1 112209Z 01021KT M00/M03 A304 RMK A01 T10011031  RH  081%=      5-min Rain = 0
KBI1 112210Z 01017G23KT M00/M03 A304 RMK A01 T10021031  RH  081%=      5-min Rain = 0
KBI1 112211Z 01017KT M00/M03 A304 RMK A01 T10021030  RH  081%=      5-min Rain = 0
KBI1 112212Z 01021G26KT M00/M03 A3041 RMK A01 T10021030  RH  081%=      5-min Rain = 0
KBI1 112213Z 01018KT M00/M03 A3041 RMK A01 T10021031  RH  081%=      5-min Rain = 0
KBI1 112214Z 01017KT M00/M03 A3041 RMK A01 T10021031  RH  081%=      5-min Rain = 0
KBI1 112215Z 01013KT M00/M03 A3041 RMK A01 T10031030  RH  082%=      5-min Rain = 0
KBI1 112216Z 01014KT M00/M03 A3041 RMK A01 T10021029  RH  082%=      5-min Rain = 0
KBI1 112217Z 01015KT M00/M03 A3041 RMK A01 T10021030  RH  082%=      5-min Rain = 0
KBI1 112218Z 00015KT M00/M03 A3041 RMK A01 T10031030  RH  082%=      5-min Rain = 0
KBI1 112219Z 01018KT M00/M03 A3041 RMK A01 T10031030  RH  082%=      5-min Rain = 0
KBI1 112220Z 00018G25KT M00/M03 A3041 RMK A01 T10031030  RH  082%=      5-min Rain = 0
KBI1 112221Z 01021KT M00/M03 A3042 RMK A01 T10031030  RH  082%=      5-min Rain = 0
KBI1 112222Z 02018KT M00/M03 A3042 RMK A01 T10041031  RH  082%=      5-min Rain = 0
KBI1 112223Z 01019KT M00/M03 A3042 RMK A01 T10041030  RH  083%=      5-min Rain = 0
KBI1 112224Z 01015G23KT M01/M03 A3042 RMK A01 T10051031  RH  083%=      5-min Rain = 0
KBI1 112225Z 02017G23KT M00/M03 A3042 RMK A01 T10041029  RH  083%=      5-min Rain = 0
KBI1 112226Z 02017KT M00/M03 A3042 RMK A01 T10041030  RH  083%=      5-min Rain = 0
KBI1 112227Z 02017G25KT M01/M03 A3042 RMK A01 T10051030  RH  083%=      5-min Rain = 0
KBI1 112228Z 02019KT M01/M03 A3042 RMK A01 T10051031  RH  083%=      5-min Rain = 0
KBI1 112229Z 02018KT M01/M03 A3042 RMK A01 T10051031  RH  083%=      5-min Rain = 0
KBI1 112230Z 01016KT M01/M03 A3042 RMK A01 T10061031  RH  083%=      5-min Rain = 0
KBI1 112231Z 02014KT M01/M03 A3042 RMK A01 T10061030  RH  083%=      5-min Rain = 0
KBI1 112232Z 02017KT M01/M03 A3042 RMK A01 T10061030  RH  084%=      5-min Rain = 0
KBI1 112233Z 01015KT M01/M03 A3042 RMK A01 T10061030  RH  084%=      5-min Rain = 0
KBI1 112234Z 02014KT M01/M03 A3042 RMK A01 T10051029  RH  084%=      5-min Rain = 0
KBI1 112235Z 02015KT M01/M03 A3042 RMK A01 T10061029  RH  085%=      5-min Rain = 0
KBI1 112236Z 01015KT M01/M03 A3041 RMK A01 T10061028  RH  085%=      5-min Rain = 0
KBI1 112237Z 01013KT M01/M03 A3041 RMK A01 T10061028  RH  085%=      5-min Rain = 0
KBI1 112238Z 01015KT M01/M03 A3041 RMK A01 T10061028  RH  085%=      5-min Rain = 0
KBI1 112239Z 02016KT M01/M03 A3041 RMK A01 T10061028  RH  085%=      5-min Rain = 0
KBI1 112240Z 02015KT M01/M03 A3041 RMK A01 T10061028  RH  085%=      5-min Rain = 0
KBI1 112241Z 02013KT M01/M03 A3041 RMK A01 T10061028  RH  085%=      5-min Rain = 0
KBI1 112242Z 02012KT M01/M03 A3041 RMK A01 T10061027  RH  086%=      5-min Rain = 0
KBI1 112243Z 02012KT M01/M03 A3041 RMK A01 T10051026  RH  086%=      5-min Rain = 0
KBI1 112244Z 01012G18KT M01/M02 A3041 RMK A01 T10051024  RH  087%=      5-min Rain = 0
KBI1 112245Z 01014G19KT M00/M02 A3042 RMK A01 T10041024  RH  087%=      5-min Rain = 0
KBI1 112246Z 02013KT M00/M02 A3042 RMK A01 T10041024  RH  087%=      5-min Rain = 0
KBI1 112247Z 01014KT M00/M02 A3042 RMK A01 T10041024  RH  087%=      5-min Rain = 0
KBI1 112248Z 01018KT M00/M02 A3042 RMK A01 T10041024  RH  086%=      5-min Rain = 0
KBI1 112249Z 00017KT M00/M03 A3042 RMK A01 T10041025  RH  086%=      5-min Rain = 0
KBI1 112250Z 36017KT M01/M03 A3042 RMK A01 T10051025  RH  086%=      5-min Rain = 0
KBI1 112251Z 00016KT M01/M03 A3042 RMK A01 T10051026  RH  086%=      5-min Rain = 0
KBI1 112252Z 00017G24KT M01/M03 A3042 RMK A01 T10051026  RH  086%=      5-min Rain = 0
KBI1 112253Z 01016KT M01/M03 A3042 RMK A01 T10051027  RH  086%=      5-min Rain = 0
KBI1 112254Z 00015KT M01/M03 A3042 RMK A01 T10051026  RH  086%=      5-min Rain = 0
KBI1 112255Z 01020KT M01/M03 A3042 RMK A01 T10051026  RH  086%=      5-min Rain = 0
KBI1 112256Z 00018KT M01/M03 A3042 RMK A01 T10061028  RH  085%=      5-min Rain = 0
KBI1 112257Z 01019G25KT M01/M03 A3042 RMK A01 T10061028  RH  085%=      5-min Rain = 0
KBI1 112258Z 36019KT M01/M03 A3042 RMK A01 T10071028  RH  086%=      5-min Rain = 0
KBI1 112259Z 00017G22KT M01/M03 A3042 RMK A01 T10081029  RH  085%=      5-min Rain = 0
KBI1 112300Z 01018G23KT M01/M03 A3042 RMK A01 T10081029  RH  086%=      5-min Rain = 0
KBI1 112301Z 36018KT M01/M03 A3042 RMK A01 T10081029  RH  086%=      5-min Rain = 0
KBI1 112302Z 01017G22KT M01/M03 A3042 RMK A01 T10081029  RH  086%=      5-min Rain = 0
KBI1 112303Z 01018G24KT M01/M03 A3042 RMK A01 T10081029  RH  086%=      5-min Rain = 0
KBI1 112304Z 01021KT M01/M03 A3042 RMK A01 T10091029  RH  086%=      5-min Rain = 0
KBI1 112305Z 01019KT M01/M03 A3042 RMK A01 T10091030  RH  086%=      5-min Rain = 0
KBI1 112306Z 01019KT M01/M03 A3042 RMK A01 T10091031  RH  086%=      5-min Rain = 0
KBI1 112307Z 01020KT M01/M03 A3042 RMK A01 T10091030  RH  086%=      5-min Rain = 0
KBI1 112308Z 02018KT M01/M03 A3042 RMK A01 T10091031  RH  086%=      5-min Rain = 0
KBI1 112309Z 01019G25KT M01/M03 A3042 RMK A01 T10091031  RH  086%=      5-min Rain = 0
KBI1 112310Z 01015KT M01/M03 A3042 RMK A01 T10091031  RH  085%=      5-min Rain = 0
KBI1 112311Z 01013G18KT M01/M03 A3043 RMK A01 T10091030  RH  086%=      5-min Rain = 0
KBI1 112312Z 01013G19KT M01/M03 A3043 RMK A01 T10091029  RH  086%=      5-min Rain = 0
KBI1 112313Z 01016G22KT M01/M03 A3043 RMK A01 T10091029  RH  086%=      5-min Rain = 0
KBI1 112314Z 02013KT M01/M03 A3043 RMK A01 T10091029  RH  086%=      5-min Rain = 0
KBI1 112315Z 02013G19KT M01/M03 A3043 RMK A01 T10091029  RH  086%=      5-min Rain = 0
KBI1 112316Z 01013KT M01/M03 A3043 RMK A01 T10091029  RH  087%=      5-min Rain = 0
KBI1 112317Z 01010KT M01/M03 A3043 RMK A01 T10091028  RH  087%=      5-min Rain = 0
KBI1 112318Z 01015G20KT M01/M03 A3043 RMK A01 T10081027  RH  087%=      5-min Rain = 0
KBI1 112319Z 02016KT M01/M03 A3043 RMK A01 T10091028  RH  087%=      5-min Rain = 0
KBI1 112320Z 01015KT M01/M03 A3043 RMK A01 T10091028  RH  087%=      5-min Rain = 0
KBI1 112321Z 01014KT M01/M03 A3043 RMK A01 T10091028  RH  087%=      5-min Rain = 0
KBI1 112322Z 01018KT M01/M03 A3043 RMK A01 T10091027  RH  087%=      5-min Rain = 0
KBI1 112323Z 01014KT M01/M03 A3044 RMK A01 T10091028  RH  087%=      5-min Rain = 0
KBI1 112324Z 00013KT M01/M03 A3044 RMK A01 T10091028  RH  087%=      5-min Rain = 0
KBI1 112325Z 00014KT M01/M03 A3044 RMK A01 T10091027  RH  087%=      5-min Rain = 0
KBI1 112326Z 00016KT M01/M03 A3044 RMK A01 T10091026  RH  088%=      5-min Rain = 0
KBI1 112327Z 00015KT M01/M03 A3044 RMK A01 T10081027  RH  087%=      5-min Rain = 0
KBI1 112328Z 36012KT M01/M03 A3044 RMK A01 T10081026  RH  088%=      5-min Rain = 0
KBI1 112329Z 36015KT M01/M03 A3045 RMK A01 T10081026  RH  088%=      5-min Rain = 0
KBI1 112330Z 35013KT M01/M03 A3045 RMK A01 T10091026  RH  088%=      5-min Rain = 0
KBI1 112331Z 36012KT M01/M03 A3045 RMK A01 T10101027  RH  088%=      5-min Rain = 0
KBI1 112332Z 35016KT M01/M03 A3045 RMK A01 T10101028  RH  088%=      5-min Rain = 0
KBI1 112333Z 36014KT M01/M03 A3045 RMK A01 T10111029  RH  088%=      5-min Rain = 0
KBI1 112334Z 36015KT M01/M03 A3045 RMK A01 T10111028  RH  088%=      5-min Rain = 0
KBI1 112335Z 36015KT M01/M03 A3045 RMK A01 T10121029  RH  088%=      5-min Rain = 0
KBI1 112336Z 36016KT M01/M03 A3045 RMK A01 T10121029  RH  088%=      5-min Rain = 0
KBI1 112337Z 36019KT M01/M03 A3045 RMK A01 T10121030  RH  088%=      5-min Rain = 0
KBI1 112338Z 36018G26KT M01/M03 A3045 RMK A01 T10131031  RH  088%=      5-min Rain = 0
KBI1 112339Z 36015KT M01/M03 A3046 RMK A01 T10131031  RH  088%=      5-min Rain = 0
KBI1 112340Z 35018KT M01/M03 A3046 RMK A01 T10141031  RH  088%=      5-min Rain = 0
KBI1 112341Z 35017G22KT M02/M03 A3046 RMK A01 T10151032  RH  088%=      5-min Rain = 0
KBI1 112342Z 35016KT M02/M03 A3046 RMK A01 T10151032  RH  088%=      5-min Rain = 0
KBI1 112343Z 35015KT M02/M03 A3046 RMK A01 T10151032  RH  088%=      5-min Rain = 0
KBI1 112344Z 00013KT M02/M03 A3046 RMK A01 T10151032  RH  088%=      5-min Rain = 0
KBI1 112345Z 01015KT M02/M03 A3046 RMK A01 T10151032  RH  088%=      5-min Rain = 0
KBI1 112346Z 01019KT M02/M03 A3046 RMK A01 T10151032  RH  088%=      5-min Rain = 0
KBI1 112347Z 36018KT M02/M03 A3046 RMK A01 T10151033  RH  088%=      5-min Rain = 0
KBI1 112348Z 01015KT M02/M03 A3046 RMK A01 T10151034  RH  087%=      5-min Rain = 0
KBI1 112349Z 01015KT M02/M03 A3046 RMK A01 T10151034  RH  087%=      5-min Rain = 0
KBI1 112350Z 01014G19KT M02/M03 A3046 RMK A01 T10151033  RH  087%=      5-min Rain = 0
KBI1 112351Z 01014KT M02/M03 A3046 RMK A01 T10151034  RH  087%=      5-min Rain = 0
KBI1 112352Z 01013KT M02/M03 A3046 RMK A01 T10151034  RH  087%=      5-min Rain = 0
KBI1 112353Z 00015KT M01/M03 A3046 RMK A01 T10141033  RH  087%=      5-min Rain = 0
KBI1 112354Z 00013KT M01/M03 A3046 RMK A01 T10141033  RH  087%=      5-min Rain = 0
KBI1 112355Z 00011KT M01/M03 A3046 RMK A01 T10141033  RH  087%=      5-min Rain = 0
KBI1 112356Z 00013KT M01/M03 A3046 RMK A01 T10141033  RH  087%=      5-min Rain = 0
KBI1 112357Z 01017KT M01/M03 A3046 RMK A01 T10141034  RH  086%=      5-min Rain = 0
KBI1 112358Z 00013KT M02/M04 A3046 RMK A01 T10151035  RH  086%=      5-min Rain = 0
KBI1 112359Z 00014KT M02/M04 A3046 RMK A01 T10151035  RH  086%=      5-min Rain = 0
KBI1 120000Z 00011KT M02/M04 A3047 RMK A01 T10151035  RH  086%=      5-min Rain = 0
KBI1 120001Z 00014KT M02/M04 A3047 RMK A01 T10151035  RH  086%=      5-min Rain = 0
KBI1 120002Z 01013KT M02/M04 A3047 RMK A01 T10151035  RH  086%=      5-min Rain = 0
KBI1 120003Z 00012G17KT M02/M04 A3047 RMK A01 T10151035  RH  086%=      5-min Rain = 0
KBI1 120004Z 00012KT M02/M04 A3046 RMK A01 T10151035  RH  086%=      5-min Rain = 0
KBI1 120005Z 00013KT M02/M04 A3046 RMK A01 T10151035  RH  086%=      5-min Rain = 0
KBI1 120006Z 00011KT M02/M04 A3046 RMK A01 T10151035  RH  086%=      5-min Rain = 0
KBI1 120007Z 00012KT M02/M04 A3046 RMK A01 T10151035  RH  086%=      5-min Rain = 0
KBI1 120008Z 00011KT M02/M04 A3046 RMK A01 T10151035  RH  086%=      5-min Rain = 0
KBI1 120009Z 00012KT M01/M03 A3046 RMK A01 T10141034  RH  086%=      5-min Rain = 0
KBI1 120010Z 00016KT M01/M03 A3047 RMK A01 T10141034  RH  086%=      5-min Rain = 0
KBI1 120011Z 35013KT M01/M03 A3047 RMK A01 T10141034  RH  086%=      5-min Rain = 0
KBI1 120012Z 00011KT M01/M04 A3047 RMK A01 T10141035  RH  086%=      5-min Rain = 0
KBI1 120013Z 00012KT M01/M03 A3047 RMK A01 T10141034  RH  086%=      5-min Rain = 0
KBI1 120014Z 00013KT M01/M03 A3047 RMK A01 T10141034  RH  086%=      5-min Rain = 0
KBI1 120015Z 36011KT M01/M03 A3047 RMK A01 T10141034  RH  086%=      5-min Rain = 0
KBI1 120016Z 36014KT M01/M04 A3047 RMK A01 T10141035  RH  086%=      5-min Rain = 0
KBI1 120017Z 36013KT M01/M04 A3047 RMK A01 T10141035  RH  086%=      5-min Rain = 0
KBI1 120018Z 36013KT M01/M04 A3046 RMK A01 T10141035  RH  086%=      5-min Rain = 0
KBI1 120019Z 00013KT M01/M04 A3047 RMK A01 T10141035  RH  086%=      5-min Rain = 0
KBI1 120020Z 35014G20KT M01/M04 A3047 RMK A01 T10141035  RH  086%=      5-min Rain = 0
KBI1 120021Z 36014KT M01/M04 A3046 RMK A01 T10141035  RH  086%=      5-min Rain = 0
KBI1 120022Z 00014KT M01/M04 A3047 RMK A01 T10141036  RH  085%=      5-min Rain = 0
KBI1 120023Z 35013KT M01/M04 A3047 RMK A01 T10141036  RH  085%=      5-min Rain = 0
KBI1 120024Z 35015KT M01/M04 A3047 RMK A01 T10141037  RH  085%=      5-min Rain = 0
KBI1 120025Z 35014KT M02/M04 A3047 RMK A01 T10151038  RH  084%=      5-min Rain = 0
KBI1 120026Z 35017KT M02/M04 A3047 RMK A01 T10151039  RH  084%=      5-min Rain = 0
KBI1 120027Z 36017G22KT M02/M04 A3047 RMK A01 T10151041  RH  083%=      5-min Rain = 0
KBI1 120028Z 35013G18KT M02/M04 A3047 RMK A01 T10161041  RH  083%=      5-min Rain = 0
KBI1 120029Z 00017G22KT M02/M04 A3047 RMK A01 T10161041  RH  083%=      5-min Rain = 0
KBI1 120030Z 00017KT M02/M04 A3047 RMK A01 T10151041  RH  082%=      5-min Rain = 0
KBI1 120031Z 36017G23KT M02/M04 A3047 RMK A01 T10151042  RH  082%=      5-min Rain = 0
KBI1 120032Z 00018KT M02/M04 A3047 RMK A01 T10151043  RH  082%=      5-min Rain = 0
KBI1 120033Z 00015G20KT M02/M04 A3047 RMK A01 T10161043  RH  081%=      5-min Rain = 0
KBI1 120034Z 36017KT M02/M04 A3047 RMK A01 T10161043  RH  081%=      5-min Rain = 0
KBI1 120035Z 01015KT M02/M04 A3047 RMK A01 T10161043  RH  081%=      5-min Rain = 0
KBI1 120036Z 00017KT M02/M04 A3047 RMK A01 T10161043  RH  082%=      5-min Rain = 0
KBI1 120037Z 00016G21KT M02/M04 A3047 RMK A01 T10161044  RH  081%=      5-min Rain = 0
KBI1 120038Z 01016G21KT M02/M04 A3047 RMK A01 T10161044  RH  081%=      5-min Rain = 0
KBI1 120039Z 36015KT M02/M04 A3047 RMK A01 T10161044  RH  081%=      5-min Rain = 0
KBI1 120040Z 00016KT M02/M04 A3047 RMK A01 T10161044  RH  081%=      5-min Rain = 0
KBI1 120041Z 00016KT M02/M04 A3047 RMK A01 T10151043  RH  081%=      5-min Rain = 0
KBI1 120042Z 36014G24KT M02/M04 A3047 RMK A01 T10151043  RH  082%=      5-min Rain = 0
KBI1 120043Z 00019KT M02/M04 A3047 RMK A01 T10161044  RH  081%=      5-min Rain = 0
KBI1 120044Z 00013KT M02/M05 A3047 RMK A01 T10161045  RH  081%=      5-min Rain = 0
KBI1 120045Z 00014G19KT M02/M04 A3047 RMK A01 T10151043  RH  081%=      5-min Rain = 0
KBI1 120046Z 01013KT M02/M04 A3047 RMK A01 T10161043  RH  082%=      5-min Rain = 0
KBI1 120047Z 01012KT M02/M04 A3047 RMK A01 T10151042  RH  082%=      5-min Rain = 0
KBI1 120048Z 01013KT M02/M04 A3047 RMK A01 T10151041  RH  082%=      5-min Rain = 0
KBI1 120049Z 01012KT M02/M04 A3047 RMK A01 T10151041  RH  083%=      5-min Rain = 0
KBI1 120050Z 01014KT M02/M04 A3046 RMK A01 T10151040  RH  083%=      5-min Rain = 0
KBI1 120051Z 01015G20KT M02/M04 A3047 RMK A01 T10151042  RH  082%=      5-min Rain = 0
KBI1 120052Z 01014G20KT M02/M04 A3047 RMK A01 T10161042  RH  082%=      5-min Rain = 0
KBI1 120053Z 00015KT M02/M04 A3047 RMK A01 T10161042  RH  082%=      5-min Rain = 0
KBI1 120054Z 00013KT M02/M04 A3047 RMK A01 T10161044  RH  081%=      5-min Rain = 0
KBI1 120055Z 36015KT M02/M04 A3047 RMK A01 T10161044  RH  081%=      5-min Rain = 0
KBI1 120056Z 36013KT M02/M04 A3047 RMK A01 T10161044  RH  081%=      5-min Rain = 0
KBI1 120057Z 00015G21KT M02/M04 A3047 RMK A01 T10161044  RH  081%=      5-min Rain = 0
KBI1 120058Z 00016G21KT M02/M05 A3047 RMK A01 T10161045  RH  081%=      5-min Rain = 0
KBI1 120059Z 00016KT M02/M05 A3047 RMK A01 T10151045  RH  080%=      5-min Rain = 0
KBI1 120100Z 00016KT M02/M05 A3047 RMK A01 T10151045  RH  080%=      5-min Rain = 0
KBI1 120101Z 36014KT M02/M05 A3047 RMK A01 T10151045  RH  080%=      5-min Rain = 0
KBI1 120102Z 01012KT M02/M05 A3047 RMK A01 T10151045  RH  080%=      5-min Rain = 0
KBI1 120103Z 00014KT M02/M04 A3047 RMK A01 T10151044  RH  081%=      5-min Rain = 0
KBI1 120104Z 00015KT M02/M04 A3047 RMK A01 T10151044  RH  080%=      5-min Rain = 0
KBI1 120105Z 00015KT M02/M05 A3047 RMK A01 T10151045  RH  080%=      5-min Rain = 0
KBI1 120106Z 00018G23KT M02/M05 A3047 RMK A01 T10151045  RH  080%=      5-min Rain = 0
KBI1 120107Z 00018KT M02/M05 A3047 RMK A01 T10151047  RH  079%=      5-min Rain = 0
KBI1 120108Z 01014KT M02/M05 A3047 RMK A01 T10151048  RH  078%=      5-min Rain = 0
KBI1 120109Z 01014KT M02/M05 A3047 RMK A01 T10151046  RH  079%=      5-min Rain = 0
KBI1 120110Z 00015KT M02/M05 A3047 RMK A01 T10151046  RH  079%=      5-min Rain = 0
KBI1 120111Z 00016KT M02/M05 A3048 RMK A01 T10151048  RH  078%=      5-min Rain = 0
KBI1 120112Z 36012KT M02/M05 A3048 RMK A01 T10151048  RH  078%=      5-min Rain = 0
KBI1 120113Z 36012KT M02/M05 A3048 RMK A01 T10151047  RH  079%=      5-min Rain = 0
KBI1 120114Z 01013KT M02/M05 A3048 RMK A01 T10151047  RH  079%=      5-min Rain = 0
KBI1 120115Z 35013KT M01/M05 A3048 RMK A01 T10141046  RH  079%=      5-min Rain = 0
KBI1 120116Z 36013KT M01/M05 A3048 RMK A01 T10141045  RH  079%=      5-min Rain = 0
KBI1 120117Z 35014KT M01/M05 A3048 RMK A01 T10141046  RH  079%=      5-min Rain = 0
KBI1 120118Z 36015KT M01/M05 A3048 RMK A01 T10141046  RH  079%=      5-min Rain = 0
KBI1 120119Z 36015G20KT M01/M05 A3048 RMK A01 T10141047  RH  078%=      5-min Rain = 0
KBI1 120120Z 00016KT M01/M05 A3048 RMK A01 T10141048  RH  078%=      5-min Rain = 0
KBI1 120121Z 00017G22KT M01/M05 A3048 RMK A01 T10141049  RH  077%=      5-min Rain = 0
KBI1 120122Z 00011KT M01/M05 A3048 RMK A01 T10141048  RH  077%=      5-min Rain = 0
KBI1 120123Z 36010KT M01/M05 A3048 RMK A01 T10141047  RH  078%=      5-min Rain = 0
KBI1 120124Z 36013KT M01/M05 A3048 RMK A01 T10141046  RH  079%=      5-min Rain = 0
KBI1 120125Z 00013KT M01/M05 A3048 RMK A01 T10141046  RH  079%=      5-min Rain = 0
KBI1 120126Z 36013KT M01/M05 A3048 RMK A01 T10141046  RH  079%=      5-min Rain = 0
KBI1 120127Z 36016KT M01/M05 A3048 RMK A01 T10141047  RH  078%=      5-min Rain = 0
KBI1 120128Z 36017KT M01/M05 A3048 RMK A01 T10141048  RH  078%=      5-min Rain = 0
KBI1 120129Z 36015KT M01/M05 A3049 RMK A01 T10141049  RH  077%=      5-min Rain = 0
KBI1 120130Z 36014KT M01/M05 A3049 RMK A01 T10141049  RH  077%=      5-min Rain = 0
KBI1 120131Z 00013KT M01/M05 A3049 RMK A01 T10131048  RH  077%=      5-min Rain = 0
KBI1 120132Z 00014KT M01/M05 A3049 RMK A01 T10131046  RH  078%=      5-min Rain = 0
KBI1 120133Z 00014G19KT M01/M05 A3049 RMK A01 T10131047  RH  078%=      5-min Rain = 0
KBI1 120134Z 00016KT M01/M05 A3049 RMK A01 T10131048  RH  077%=      5-min Rain = 0
KBI1 120135Z 00015KT M01/M05 A3049 RMK A01 T10131048  RH  077%=      5-min Rain = 0
KBI1 120136Z 00014KT M01/M05 A3048 RMK A01 T10131048  RH  077%=      5-min Rain = 0
KBI1 120137Z 36014KT M01/M05 A3048 RMK A01 T10131047  RH  077%=      5-min Rain = 0
KBI1 120138Z 00013KT M01/M05 A3048 RMK A01 T10131047  RH  078%=      5-min Rain = 0
KBI1 120139Z 01014KT M01/M05 A3048 RMK A01 T10131046  RH  078%=      5-min Rain = 0
KBI1 120140Z 36013G18KT M01/M05 A3048 RMK A01 T10131047  RH  078%=      5-min Rain = 0
KBI1 120141Z 00016KT M01/M05 A3048 RMK A01 T10131048  RH  077%=      5-min Rain = 0
KBI1 120142Z 36017KT M01/M05 A3048 RMK A01 T10131049  RH  077%=      5-min Rain = 0
KBI1 120143Z 01017G22KT M01/M05 A3048 RMK A01 T10131051  RH  075%=      5-min Rain = 0
KBI1 120144Z 00017G23KT M01/M05 A3048 RMK A01 T10131053  RH  074%=      5-min Rain = 0
KBI1 120145Z 00016KT M01/M05 A3048 RMK A01 T10131053  RH  074%=      5-min Rain = 0
KBI1 120146Z 01013KT M01/M05 A3049 RMK A01 T10131052  RH  075%=      5-min Rain = 0
KBI1 120147Z 00012G17KT M01/M05 A3049 RMK A01 T10131052  RH  075%=      5-min Rain = 0
KBI1 120148Z 00018KT M01/M05 A3049 RMK A01 T10131052  RH  075%=      5-min Rain = 0
KBI1 120149Z 00013G19KT M01/M05 A3049 RMK A01 T10121053  RH  074%=      5-min Rain = 0
KBI1 120150Z 35013KT M01/M05 A305 RMK A01 T10121052  RH  074%=      5-min Rain = 0
KBI1 120151Z 00016G22KT M01/M05 A305 RMK A01 T10131054  RH  074%=      5-min Rain = 0
KBI1 120152Z 36017KT M01/M06 A305 RMK A01 T10121056  RH  072%=      5-min Rain = 0
KBI1 120153Z 36017KT M01/M06 A305 RMK A01 T10131056  RH  072%=      5-min Rain = 0
KBI1 120154Z 00016KT M01/M06 A305 RMK A01 T10131057  RH  072%=      5-min Rain = 0
KBI1 120155Z 00016KT M01/M06 A305 RMK A01 T10131057  RH  072%=      5-min Rain = 0
KBI1 120156Z 36015KT M01/M06 A305 RMK A01 T10121056  RH  072%=      5-min Rain = 0
KBI1 120157Z 01014KT M01/M06 A305 RMK A01 T10121055  RH  073%=      5-min Rain = 0
KBI1 120158Z 36014KT M01/M05 A305 RMK A01 T10131054  RH  073%=      5-min Rain = 0
KBI1 120159Z 00012KT M01/M05 A305 RMK A01 T10121053  RH  074%=      5-min Rain = 0
KBI1 120200Z 36014KT M01/M05 A305 RMK A01 T10131052  RH  074%=      5-min Rain = 0
KBI1 120201Z 00015KT M01/M05 A305 RMK A01 T10121052  RH  075%=      5-min Rain = 0
KBI1 120202Z 00013KT M01/M05 A305 RMK A01 T10131052  RH  074%=      5-min Rain = 0
KBI1 120203Z 00014G21KT M01/M05 A305 RMK A01 T10121052  RH  075%=      5-min Rain = 0
KBI1 120204Z 00016KT M01/M05 A3049 RMK A01 T10121052  RH  074%=      5-min Rain = 0
KBI1 120205Z 00013KT M01/M05 A3049 RMK A01 T10131053  RH  074%=      5-min Rain = 0
KBI1 120206Z 36015KT M01/M05 A3049 RMK A01 T10131052  RH  075%=      5-min Rain = 0
KBI1 120207Z 00013KT M01/M05 A3049 RMK A01 T10131052  RH  075%=      5-min Rain = 0
KBI1 120208Z 00014KT M01/M05 A3049 RMK A01 T10131051  RH  075%=      5-min Rain = 0
KBI1 120209Z 36017G22KT M01/M05 A3049 RMK A01 T10131051  RH  076%=      5-min Rain = 0
KBI1 120210Z 36014KT M01/M05 A3049 RMK A01 T10131053  RH  074%=      5-min Rain = 0
KBI1 120211Z 00017KT M01/M05 A305 RMK A01 T10131054  RH  074%=      5-min Rain = 0
KBI1 120212Z 00014KT M01/M06 A305 RMK A01 T10131055  RH  073%=      5-min Rain = 0
KBI1 120213Z 35014KT M01/M05 A305 RMK A01 T10131054  RH  074%=      5-min Rain = 0
KBI1 120214Z 00013G18KT M01/M05 A305 RMK A01 T10131053  RH  074%=      5-min Rain = 0
KBI1 120215Z 01014KT M01/M05 A305 RMK A01 T10131053  RH  074%=      5-min Rain = 0
KBI1 120216Z 36011KT M01/M05 A305 RMK A01 T10131052  RH  075%=      5-min Rain = 0
KBI1 120217Z 36011KT M01/M05 A305 RMK A01 T10131051  RH  075%=      5-min Rain = 0
KBI1 120218Z 01011KT M01/M05 A305 RMK A01 T10121050  RH  075%=      5-min Rain = 0
KBI1 120219Z 00013KT M01/M05 A305 RMK A01 T10121051  RH  075%=      5-min Rain = 0
KBI1 120220Z 01010KT M01/M05 A305 RMK A01 T10121052  RH  074%=      5-min Rain = 0
KBI1 120221Z 01012G20KT M01/M05 A305 RMK A01 T10121050  RH  075%=      5-min Rain = 0
KBI1 120222Z 01015KT M01/M05 A305 RMK A01 T10121052  RH  074%=      5-min Rain = 0
KBI1 120223Z 01014KT M01/M05 A305 RMK A01 T10121054  RH  073%=      5-min Rain = 0
KBI1 120224Z 01016G23KT M01/M06 A305 RMK A01 T10121057  RH  072%=      5-min Rain = 0
KBI1 120225Z 01014KT M01/M06 A305 RMK A01 T10121059  RH  071%=      5-min Rain = 0
KBI1 120226Z 01016KT M01/M06 A305 RMK A01 T10111058  RH  071%=      5-min Rain = 0
KBI1 120227Z 00013KT M01/M06 A305 RMK A01 T10121058  RH  071%=      5-min Rain = 0
KBI1 120228Z 01012KT M01/M06 A305 RMK A01 T10121057  RH  071%=      5-min Rain = 0
KBI1 120229Z 01014KT M01/M06 A305 RMK A01 T10111055  RH  072%=      5-min Rain = 0
KBI1 120230Z 01014KT M01/M06 A305 RMK A01 T10121057  RH  071%=      5-min Rain = 0
KBI1 120231Z 01013KT M01/M06 A305 RMK A01 T10111057  RH  071%=      5-min Rain = 0
KBI1 120232Z 02017G24KT M01/M06 A305 RMK A01 T10111057  RH  071%=      5-min Rain = 0
KBI1 120233Z 01017G22KT M01/M06 A305 RMK A01 T10111060  RH  069%=      5-min Rain = 0
KBI1 120234Z 01020G25KT M01/M06 A305 RMK A01 T10111062  RH  069%=      5-min Rain = 0
KBI1 120235Z 01017KT M01/M07 A305 RMK A01 T10121065  RH  067%=      5-min Rain = 0
KBI1 120236Z 01019KT M01/M06 A3051 RMK A01 T10121064  RH  067%=      5-min Rain = 0
KBI1 120237Z 01015KT M01/M06 A3051 RMK A01 T10121064  RH  068%=      5-min Rain = 0
KBI1 120238Z 00014KT M01/M06 A3051 RMK A01 T10121062  RH  068%=      5-min Rain = 0
KBI1 120239Z 00015KT M01/M06 A3051 RMK A01 T10121062  RH  069%=      5-min Rain = 0
KBI1 120240Z 01015G20KT M01/M06 A3051 RMK A01 T10121062  RH  069%=      5-min Rain = 0
KBI1 120241Z 01016KT M01/M06 A3051 RMK A01 T10121063  RH  068%=      5-min Rain = 0
KBI1 120242Z 02015KT M01/M06 A3051 RMK A01 T10121064  RH  068%=      5-min Rain = 0
KBI1 120243Z 01014KT M01/M06 A3051 RMK A01 T10121064  RH  068%=      5-min Rain = 0
KBI1 120244Z 01013G19KT M01/M06 A305 RMK A01 T10121062  RH  069%=      5-min Rain = 0
KBI1 120245Z 01017KT M01/M06 A305 RMK A01 T10121063  RH  068%=      5-min Rain = 0
KBI1 120246Z 01017KT M01/M07 A305 RMK A01 T10121065  RH  067%=      5-min Rain = 0
KBI1 120247Z 01014KT M01/M07 A305 RMK A01 T10121065  RH  068%=      5-min Rain = 0
KBI1 120248Z 01012KT M01/M06 A305 RMK A01 T10121063  RH  068%=      5-min Rain = 0
KBI1 120249Z 01012KT M01/M06 A305 RMK A01 T10121062  RH  069%=      5-min Rain = 0
KBI1 120250Z 01013G18KT M01/M06 A305 RMK A01 T10121062  RH  069%=      5-min Rain = 0
KBI1 120251Z 01015KT M01/M06 A3051 RMK A01 T10121063  RH  069%=      5-min Rain = 0
KBI1 120252Z 02014KT M01/M06 A3051 RMK A01 T10131064  RH  068%=      5-min Rain = 0
KBI1 120253Z 01011G16KT M01/M06 A3051 RMK A01 T10121063  RH  069%=      5-min Rain = 0
KBI1 120254Z 00012KT M01/M06 A3051 RMK A01 T10121061  RH  069%=      5-min Rain = 0
KBI1 120255Z 01014KT M01/M06 A3051 RMK A01 T10121061  RH  069%=      5-min Rain = 0
KBI1 120256Z 01016KT M01/M06 A3051 RMK A01 T10131062  RH  069%=      5-min Rain = 0
KBI1 120257Z 01016KT M01/M06 A3051 RMK A01 T10121063  RH  068%=      5-min Rain = 0
KBI1 120258Z 01014KT M01/M06 A3051 RMK A01 T10131063  RH  069%=      5-min Rain = 0
KBI1 120259Z 01016KT M01/M06 A3051 RMK A01 T10121062  RH  069%=      5-min Rain = 0
KBI1 120300Z 00015KT M01/M06 A3051 RMK A01 T10131062  RH  069%=      5-min Rain = 0
KBI1 120301Z 01016G21KT M01/M06 A3051 RMK A01 T10121063  RH  069%=      5-min Rain = 0
KBI1 120302Z 01016G21KT M01/M06 A3051 RMK A01 T10121063  RH  068%=      5-min Rain = 0
KBI1 120303Z 01016KT M01/M06 A3051 RMK A01 T10131063  RH  069%=      5-min Rain = 0
KBI1 120304Z 01015KT M01/M06 A3051 RMK A01 T10121062  RH  069%=      5-min Rain = 0
KBI1 120305Z 00011KT M01/M06 A3051 RMK A01 T10131061  RH  070%=      5-min Rain = 0
KBI1 120306Z 01012G17KT M01/M06 A3052 RMK A01 T10131059  RH  070%=      5-min Rain = 0
KBI1 120307Z 00010KT M01/M06 A3052 RMK A01 T10121059  RH  070%=      5-min Rain = 0
KBI1 120308Z 00011KT M01/M06 A3052 RMK A01 T10121058  RH  071%=      5-min Rain = 0
KBI1 120309Z 00016KT M01/M06 A3052 RMK A01 T10121058  RH  071%=      5-min Rain = 0
KBI1 120310Z 00015KT M01/M06 A3052 RMK A01 T10131062  RH  069%=      5-min Rain = 0
KBI1 120311Z 01015KT M01/M06 A3052 RMK A01 T10121062  RH  069%=      5-min Rain = 0
KBI1 120312Z 01016KT M01/M06 A3052 RMK A01 T10131062  RH  069%=      5-min Rain = 0
KBI1 120313Z 36015KT M01/M06 A3052 RMK A01 T10121062  RH  069%=      5-min Rain = 0
KBI1 120314Z 01013KT M01/M06 A3052 RMK A01 T10121062  RH  069%=      5-min Rain = 0
KBI1 120315Z 01014KT M01/M06 A3052 RMK A01 T10121060  RH  070%=      5-min Rain = 0
KBI1 120316Z 00014G19KT M01/M06 A3052 RMK A01 T10121060  RH  070%=      5-min Rain = 0
KBI1 120317Z 00015KT M01/M06 A3052 RMK A01 T10121062  RH  069%=      5-min Rain = 0
KBI1 120318Z 01014KT M01/M06 A3052 RMK A01 T10121062  RH  069%=      5-min Rain = 0
KBI1 120319Z 01011KT M01/M06 A3052 RMK A01 T10121061  RH  069%=      5-min Rain = 0
KBI1 120320Z 00012G18KT M01/M06 A3052 RMK A01 T10121059  RH  070%=      5-min Rain = 0
KBI1 120321Z 01013KT M01/M06 A3052 RMK A01 T10121059  RH  070%=      5-min Rain = 0
KBI1 120322Z 01014KT M01/M06 A3052 RMK A01 T10121060  RH  070%=      5-min Rain = 0
KBI1 120323Z 00013G18KT M01/M06 A3052 RMK A01 T10121060  RH  070%=      5-min Rain = 0
KBI1 120324Z 36015KT M01/M06 A3052 RMK A01 T10111061  RH  069%=      5-min Rain = 0
KBI1 120325Z 01013G18KT M01/M06 A3052 RMK A01 T10121061  RH  069%=      5-min Rain = 0
KBI1 120326Z 01016KT M01/M06 A3052 RMK A01 T10111061  RH  069%=      5-min Rain = 0
KBI1 120327Z 01017KT M01/M06 A3052 RMK A01 T10111062  RH  068%=      5-min Rain = 0
KBI1 120328Z 02015KT M01/M06 A3052 RMK A01 T10121063  RH  068%=      5-min Rain = 0
KBI1 120329Z 01013KT M01/M06 A3052 RMK A01 T10111062  RH  069%=      5-min Rain = 0
KBI1 120330Z 00014KT M01/M06 A3052 RMK A01 T10121060  RH  069%=      5-min Rain = 0
KBI1 120331Z 00013KT M01/M06 A3052 RMK A01 T10121060  RH  070%=      5-min Rain = 0
KBI1 120332Z 01013KT M01/M06 A3052 RMK A01 T10121060  RH  070%=      5-min Rain = 0
KBI1 120333Z 01014KT M01/M06 A3052 RMK A01 T10121058  RH  071%=      5-min Rain = 0
KBI1 120334Z 01011KT M01/M06 A3052 RMK A01 T10121059  RH  070%=      5-min Rain = 0
KBI1 120335Z 01013KT M01/M06 A3052 RMK A01 T10111059  RH  070%=      5-min Rain = 0
KBI1 120336Z 01015G20KT M01/M06 A3052 RMK A01 T10111059  RH  070%=      5-min Rain = 0
KBI1 120337Z 01015KT M01/M06 A3052 RMK A01 T10121060  RH  070%=      5-min Rain = 0
KBI1 120338Z 01015KT M01/M06 A3052 RMK A01 T10121061  RH  069%=      5-min Rain = 0
KBI1 120339Z 00015KT M01/M06 A3052 RMK A01 T10111061  RH  069%=      5-min Rain = 0
KBI1 120340Z 36013KT M01/M06 A3052 RMK A01 T10111060  RH  069%=      5-min Rain = 0
KBI1 120341Z 36015KT M01/M06 A3053 RMK A01 T10111059  RH  070%=      5-min Rain = 0
KBI1 120342Z 00013KT M01/M06 A3053 RMK A01 T10111058  RH  071%=      5-min Rain = 0
KBI1 120343Z 00012KT M01/M06 A3053 RMK A01 T10121058  RH  071%=      5-min Rain = 0
KBI1 120344Z 00012KT M01/M06 A3053 RMK A01 T10121056  RH  072%=      5-min Rain = 0
KBI1 120345Z 36011KT M01/M06 A3053 RMK A01 T10121055  RH  072%=      5-min Rain = 0
KBI1 120346Z 00011KT M01/M06 A3053 RMK A01 T10121055  RH  073%=      5-min Rain = 0
KBI1 120347Z 36012G17KT M01/M06 A3053 RMK A01 T10121055  RH  073%=      5-min Rain = 0
KBI1 120348Z 36014KT M01/M06 A3053 RMK A01 T10131057  RH  072%=      5-min Rain = 0
KBI1 120349Z 00017KT M01/M06 A3053 RMK A01 T10131058  RH  071%=      5-min Rain = 0
KBI1 120350Z 01018G24KT M01/M06 A3053 RMK A01 T10121059  RH  070%=      5-min Rain = 0
KBI1 120351Z 36019G24KT M01/M06 A3054 RMK A01 T10131062  RH  069%=      5-min Rain = 0
KBI1 120352Z 35017KT M01/M06 A3054 RMK A01 T10131062  RH  069%=      5-min Rain = 0
KBI1 120353Z 36018G24KT M01/M06 A3053 RMK A01 T10131063  RH  069%=      5-min Rain = 0
KBI1 120354Z 36018G23KT M01/M07 A3054 RMK A01 T10141065  RH  069%=      5-min Rain = 0
KBI1 120355Z 36013KT M01/M06 A3054 RMK A01 T10141063  RH  069%=      5-min Rain = 0
KBI1 120356Z 00017G22KT M02/M06 A3054 RMK A01 T10151062  RH  070%=      5-min Rain = 0
KBI1 120357Z 00017KT M02/M06 A3054 RMK A01 T10151062  RH  070%=      5-min Rain = 0
KBI1 120358Z 00014G19KT M02/M06 A3054 RMK A01 T10151061  RH  071%=      5-min Rain = 0
KBI1 120359Z 01017KT M02/M06 A3054 RMK A01 T10151061  RH  071%=      5-min Rain = 0
KBI1 120400Z 01013KT M02/M06 A3054 RMK A01 T10151063  RH  070%=      5-min Rain = 0
KBI1 120401Z 01013KT M02/M06 A3055 RMK A01 T10151061  RH  071%=      5-min Rain = 0
KBI1 120402Z 01012KT M02/M06 A3055 RMK A01 T10151060  RH  071%=      5-min Rain = 0
KBI1 120403Z 01012KT M02/M06 A3055 RMK A01 T10151058  RH  072%=      5-min Rain = 0
KBI1 120404Z 01011KT M02/M06 A3055 RMK A01 T10151057  RH  073%=      5-min Rain = 0
KBI1 120405Z 36013KT M02/M06 A3055 RMK A01 T10161057  RH  073%=      5-min Rain = 0
KBI1 120406Z 00013KT M02/M06 A3055 RMK A01 T10161058  RH  073%=      5-min Rain = 0
KBI1 120407Z 01015G22KT M02/M06 A3055 RMK A01 T10161059  RH  073%=      5-min Rain = 0
KBI1 120408Z 01015KT M02/M06 A3055 RMK A01 T10171060  RH  072%=      5-min Rain = 0
KBI1 120409Z 01014G19KT M02/M06 A3055 RMK A01 T10171061  RH  072%=      5-min Rain = 0
KBI1 120410Z 01014KT M02/M06 A3055 RMK A01 T10171061  RH  072%=      5-min Rain = 0
KBI1 120411Z 00014KT M02/M06 A3055 RMK A01 T10171060  RH  072%=      5-min Rain = 0
KBI1 120412Z 01012KT M02/M06 A3055 RMK A01 T10171061  RH  072%=      5-min Rain = 0
KBI1 120413Z 00012G17KT M02/M06 A3055 RMK A01 T10171060  RH  072%=      5-min Rain = 0
KBI1 120414Z 36013KT M02/M06 A3055 RMK A01 T10161058  RH  073%=      5-min Rain = 0
KBI1 120415Z 01015KT M02/M06 A3055 RMK A01 T10171060  RH  073%=      5-min Rain = 0
KBI1 120416Z 01011G17KT M02/M06 A3055 RMK A01 T10171061  RH  072%=      5-min Rain = 0
KBI1 120417Z 01012KT M02/M06 A3055 RMK A01 T10171059  RH  073%=      5-min Rain = 0
KBI1 120418Z 01012G17KT M02/M06 A3055 RMK A01 T10171060  RH  073%=      5-min Rain = 0
KBI1 120419Z 01013KT M02/M06 A3055 RMK A01 T10171060  RH  073%=      5-min Rain = 0
KBI1 120420Z 01013KT M02/M06 A3055 RMK A01 T10171060  RH  072%=      5-min Rain = 0
KBI1 120421Z 00013KT M02/M06 A3055 RMK A01 T10171060  RH  072%=      5-min Rain = 0
KBI1 120422Z 01012KT M02/M06 A3055 RMK A01 T10171060  RH  073%=      5-min Rain = 0
KBI1 120423Z 01015KT M02/M06 A3055 RMK A01 T10171060  RH  073%=      5-min Rain = 0
KBI1 120424Z 01013KT M02/M06 A3055 RMK A01 T10171060  RH  073%=      5-min Rain = 0
KBI1 120425Z 00011KT M02/M06 A3055 RMK A01 T10171059  RH  073%=      5-min Rain = 0
KBI1 120426Z 01011KT M02/M06 A3055 RMK A01 T10171058  RH  073%=      5-min Rain = 0
KBI1 120427Z 00013KT M02/M06 A3055 RMK A01 T10171058  RH  074%=      5-min Rain = 0
KBI1 120428Z 00012KT M02/M06 A3055 RMK A01 T10171058  RH  073%=      5-min Rain = 0
KBI1 120429Z 00013KT M02/M06 A3055 RMK A01 T10171058  RH  074%=      5-min Rain = 0
KBI1 120430Z 36013KT M02/M06 A3055 RMK A01 T10171058  RH  074%=      5-min Rain = 0
KBI1 120431Z 36014KT M02/M06 A3055 RMK A01 T10171058  RH  074%=      5-min Rain = 0
KBI1 120432Z 00010KT M02/M06 A3055 RMK A01 T10171057  RH  074%=      5-min Rain = 0
KBI1 120433Z 00015KT M02/M06 A3055 RMK A01 T10171056  RH  074%=      5-min Rain = 0
KBI1 120434Z 00014KT M02/M06 A3055 RMK A01 T10171058  RH  074%=      5-min Rain = 0
KBI1 120435Z 00013G19KT M02/M06 A3055 RMK A01 T10171058  RH  073%=      5-min Rain = 0
KBI1 120436Z 36017KT M02/M06 A3055 RMK A01 T10181060  RH  073%=      5-min Rain = 0
KBI1 120437Z 00015KT M02/M06 A3055 RMK A01 T10181060  RH  073%=      5-min Rain = 0
KBI1 120438Z 35015KT M02/M06 A3055 RMK A01 T10181061  RH  072%=      5-min Rain = 0
KBI1 120439Z 36013KT M02/M06 A3055 RMK A01 T10181060  RH  073%=      5-min Rain = 0
KBI1 120440Z 36014G21KT M02/M06 A3055 RMK A01 T10181060  RH  073%=      5-min Rain = 0
KBI1 120441Z 36016KT M02/M06 A3055 RMK A01 T10181061  RH  073%=      5-min Rain = 0
KBI1 120442Z 00014KT M02/M06 A3055 RMK A01 T10181060  RH  073%=      5-min Rain = 0
KBI1 120443Z 00014KT M02/M06 A3055 RMK A01 T10181059  RH  074%=      5-min Rain = 0
KBI1 120444Z 36015KT M02/M06 A3055 RMK A01 T10181059  RH  074%=      5-min Rain = 0
KBI1 120445Z 01014KT M02/M06 A3055 RMK A01 T10181059  RH  074%=      5-min Rain = 0
KBI1 120446Z 00014KT M02/M06 A3055 RMK A01 T10181059  RH  074%=      5-min Rain = 0
KBI1 120447Z 00014G19KT M02/M06 A3055 RMK A01 T10181058  RH  074%=      5-min Rain = 0
KBI1 120448Z 00013KT M02/M06 A3055 RMK A01 T10181058  RH  074%=      5-min Rain = 0
KBI1 120449Z 36012G18KT M02/M06 A3055 RMK A01 T10181057  RH  075%=      5-min Rain = 0
KBI1 120450Z 00015KT M02/M06 A3055 RMK A01 T10181057  RH  075%=      5-min Rain = 0
KBI1 120451Z 36014G20KT M02/M06 A3055 RMK A01 T10181057  RH  075%=      5-min Rain = 0
KBI1 120452Z 36013KT M02/M06 A3055 RMK A01 T10191058  RH  075%=      5-min Rain = 0
KBI1 120453Z 36015KT M02/M06 A3056 RMK A01 T10191057  RH  075%=      5-min Rain = 0
KBI1 120454Z 36015KT M02/M06 A3056 RMK A01 T10191057  RH  075%=      5-min Rain = 0
KBI1 120455Z 36017KT M02/M06 A3056 RMK A01 T10191058  RH  075%=      5-min Rain = 0
KBI1 120456Z 00012KT M02/M06 A3056 RMK A01 T10191058  RH  075%=      5-min Rain = 0
KBI1 120457Z 00012KT M02/M06 A3056 RMK A01 T10191056  RH  076%=      5-min Rain = 0
KBI1 120458Z 00013KT M02/M06 A3056 RMK A01 T10191055  RH  076%=      5-min Rain = 0
KBI1 120459Z 00011KT M02/M06 A3056 RMK A01 T10191056  RH  076%=      5-min Rain = 0
KBI1 120500Z 35012KT M02/M05 A3056 RMK A01 T10191054  RH  077%=      5-min Rain = 0
KBI1 120501Z 36013KT M02/M05 A3056 RMK A01 T10191053  RH  077%=      5-min Rain = 0
KBI1 120502Z 00014KT M02/M05 A3056 RMK A01 T10191053  RH  078%=      5-min Rain = 0
KBI1 120503Z 36013KT M02/M05 A3056 RMK A01 T10191052  RH  078%=      5-min Rain = 0
KBI1 120504Z 35013KT M02/M05 A3056 RMK A01 T10201052  RH  078%=      5-min Rain = 0
KBI1 120505Z 35014KT M02/M05 A3056 RMK A01 T10201053  RH  078%=      5-min Rain = 0
KBI1 120506Z 00012KT M02/M05 A3056 RMK A01 T10201052  RH  079%=      5-min Rain = 0
KBI1 120507Z 01012KT M02/M05 A3056 RMK A01 T10201051  RH  080%=      5-min Rain = 0
KBI1 120508Z 36010KT M02/M05 A3056 RMK A01 T10201050  RH  080%=      5-min Rain = 0
KBI1 120509Z 35011G16KT M02/M05 A3056 RMK A01 T10201049  RH  081%=      5-min Rain = 0
KBI1 120510Z 35014KT M02/M05 A3056 RMK A01 T10201049  RH  081%=      5-min Rain = 0
KBI1 120511Z 00014KT M02/M05 A3056 RMK A01 T10211050  RH  081%=      5-min Rain = 0
KBI1 120512Z 35010KT M02/M05 A3056 RMK A01 T10211050  RH  081%=      5-min Rain = 0
KBI1 120513Z 36010KT M02/M05 A3056 RMK A01 T10211048  RH  082%=      5-min Rain = 0
KBI1 120514Z 35009KT M02/M05 A3056 RMK A01 T10211047  RH  083%=      5-min Rain = 0
KBI1 120515Z 35012KT M02/M05 A3056 RMK A01 T10211046  RH  083%=      5-min Rain = 0
KBI1 120516Z 00010KT M02/M05 A3056 RMK A01 T10211046  RH  083%=      5-min Rain = 0
KBI1 120517Z 00009KT M02/M05 A3056 RMK A01 T10211047  RH  083%=      5-min Rain = 0
KBI1 120518Z 00010KT M02/M05 A3056 RMK A01 T10211045  RH  084%=      5-min Rain = 0
KBI1 120519Z 00009KT M02/M04 A3056 RMK A01 T10201044  RH  084%=      5-min Rain = 0
KBI1 120520Z 00011KT M02/M04 A3056 RMK A01 T10201044  RH  084%=      5-min Rain = 0
KBI1 120521Z 36011KT M02/M04 A3056 RMK A01 T10201044  RH  084%=      5-min Rain = 0
KBI1 120522Z 00012KT M02/M05 A3056 RMK A01 T10211045  RH  084%=      5-min Rain = 0
KBI1 120523Z 35009KT M02/M05 A3057 RMK A01 T10201045  RH  084%=      5-min Rain = 0
KBI1 120524Z 36010KT M02/M05 A3057 RMK A01 T10211045  RH  084%=      5-min Rain = 0
KBI1 120525Z 00011KT M02/M05 A3057 RMK A01 T10211045  RH  084%=      5-min Rain = 0
KBI1 120526Z 36010KT M02/M05 A3057 RMK A01 T10211045  RH  084%=      5-min Rain = 0
KBI1 120527Z 36012KT M02/M05 A3057 RMK A01 T10211045  RH  084%=      5-min Rain = 0
KBI1 120528Z 36011KT M02/M05 A3057 RMK A01 T10211046  RH  083%=      5-min Rain = 0
KBI1 120529Z 36009KT M02/M05 A3057 RMK A01 T10211046  RH  083%=      5-min Rain = 0
KBI1 120530Z 36009KT M02/M05 A3057 RMK A01 T10211046  RH  083%=      5-min Rain = 0
KBI1 120531Z 36011KT M02/M05 A3057 RMK A01 T10211045  RH  083%=      5-min Rain = 0
KBI1 120532Z 36012KT M02/M05 A3057 RMK A01 T10211047  RH  083%=      5-min Rain = 0
KBI1 120533Z 36012KT M02/M05 A3057 RMK A01 T10211048  RH  082%=      5-min Rain = 0
KBI1 120534Z 36009KT M02/M05 A3057 RMK A01 T10221049  RH  082%=      5-min Rain = 0
KBI1 120535Z 35009KT M02/M05 A3057 RMK A01 T10211048  RH  082%=      5-min Rain = 0
KBI1 120536Z 36009KT M02/M05 A3057 RMK A01 T10211048  RH  082%=      5-min Rain = 0
KBI1 120537Z 36009KT M02/M05 A3057 RMK A01 T10211048  RH  082%=      5-min Rain = 0
KBI1 120538Z 36010KT M02/M05 A3057 RMK A01 T10211047  RH  082%=      5-min Rain = 0
KBI1 120539Z 00010KT M02/M05 A3057 RMK A01 T10211047  RH  082%=      5-min Rain = 0
KBI1 120540Z 00010KT M02/M05 A3057 RMK A01 T10211048  RH  082%=      5-min Rain = 0
KBI1 120541Z 00008KT M02/M05 A3057 RMK A01 T10211047  RH  082%=      5-min Rain = 0
KBI1 120542Z 36008KT M02/M05 A3056 RMK A01 T10211046  RH  083%=      5-min Rain = 0
KBI1 120543Z 01010KT M02/M05 A3056 RMK A01 T10211045  RH  083%=      5-min Rain = 0
KBI1 120544Z 00010KT M02/M05 A3056 RMK A01 T10211046  RH  083%=      5-min Rain = 0
KBI1 120545Z 00011KT M02/M05 A3056 RMK A01 T10211047  RH  082%=      5-min Rain = 0
KBI1 120546Z 00009KT M02/M05 A3056 RMK A01 T10211047  RH  082%=      5-min Rain = 0
KBI1 120547Z 00010KT M02/M05 A3056 RMK A01 T10211047  RH  082%=      5-min Rain = 0
KBI1 120548Z 36010KT M02/M05 A3056 RMK A01 T10211048  RH  082%=      5-min Rain = 0
KBI1 120549Z 36012KT M02/M05 A3056 RMK A01 T10201049  RH  081%=      5-min Rain = 0
KBI1 120550Z 00013KT M02/M05 A3056 RMK A01 T10211053  RH  079%=      5-min Rain = 0
KBI1 120551Z 01014KT M02/M06 A3056 RMK A01 T10211055  RH  077%=      5-min Rain = 0
KBI1 120552Z 01014KT M02/M06 A3056 RMK A01 T10211056  RH  076%=      5-min Rain = 0
KBI1 120553Z 01014KT M02/M06 A3056 RMK A01 T10211061  RH  074%=      5-min Rain = 0
KBI1 120554Z 00012KT M02/M06 A3056 RMK A01 T10211062  RH  073%=      5-min Rain = 0
KBI1 120555Z 01011KT M02/M06 A3056 RMK A01 T10201061  RH  074%=      5-min Rain = 0
KBI1 120556Z 36012KT M02/M06 A3056 RMK A01 T10201059  RH  075%=      5-min Rain = 0
KBI1 120557Z 00012KT M02/M06 A3056 RMK A01 T10211060  RH  075%=      5-min Rain = 0
KBI1 120558Z 00013KT M02/M06 A3056 RMK A01 T10211061  RH  074%=      5-min Rain = 0
KBI1 120559Z 00014KT M02/M06 A3056 RMK A01 T10211063  RH  073%=      5-min Rain = 0

Page generated in 0.0715 seconds.